Observation data for Menard on 02/14/2020      Previous  Date  Next       Current Mesonet Observations  Soil Data  Daily Summary Page  Observations in Plain Language
KMD1 140600Z 06005KT 00/M01 A3035 RMK A01 T00011007  RH  095%=      5-min Rain = 0
KMD1 140601Z 05005KT 00/01 A3035 RMK A01 T000000-8  RH  094%=      5-min Rain = 0
KMD1 140602Z 05004KT 00/01 A3035 RMK A01 T000000-7  RH  095%=      5-min Rain = 0
KMD1 140603Z 05005KT 00/01 A3035 RMK A01 T00-000-8  RH  095%=      5-min Rain = 0
KMD1 140604Z 05005KT M00/M01 A3035 RMK A01 T10011008  RH  095%=      5-min Rain = 0
KMD1 140605Z 05005KT M00/M01 A3035 RMK A01 T10011008  RH  095%=      5-min Rain = 0
KMD1 140606Z 05005KT M00/M01 A3035 RMK A01 T10011008  RH  095%=      5-min Rain = 0
KMD1 140607Z 05005KT M00/M01 A3035 RMK A01 T10011008  RH  095%=      5-min Rain = 0
KMD1 140608Z 05006KT M00/M01 A3035 RMK A01 T10011008  RH  095%=      5-min Rain = 0
KMD1 140609Z 05005KT M00/M01 A3035 RMK A01 T10011008  RH  095%=      5-min Rain = 0
KMD1 140610Z 05006KT M00/M01 A3035 RMK A01 T10011008  RH  095%=      5-min Rain = 0
KMD1 140611Z 05005KT M00/M01 A3035 RMK A01 T10011008  RH  095%=      5-min Rain = 0
KMD1 140612Z 05005KT M00/M01 A3035 RMK A01 T10011008  RH  095%=      5-min Rain = 0
KMD1 140613Z 05005KT M00/M01 A3035 RMK A01 T10011008  RH  095%=      5-min Rain = 0
KMD1 140614Z 05006KT M00/M01 A3035 RMK A01 T10011007  RH  096%=      5-min Rain = 0
KMD1 140615Z 05004KT 00/01 A3035 RMK A01 T00-000-7  RH  096%=      5-min Rain = 0
KMD1 140616Z 05005KT 00/01 A3035 RMK A01 T00-000-7  RH  095%=      5-min Rain = 0
KMD1 140617Z 05006KT 00/01 A3035 RMK A01 T00-000-7  RH  095%=      5-min Rain = 0
KMD1 140618Z 06005KT 00/01 A3035 RMK A01 T000000-7  RH  095%=      5-min Rain = 0
KMD1 140619Z 05006KT 00/M01 A3035 RMK A01 T00011006  RH  095%=      5-min Rain = 0
KMD1 140620Z 05005KT 00/M01 A3035 RMK A01 T00011006  RH  095%=      5-min Rain = 0
KMD1 140621Z 06006KT 00/M01 A3035 RMK A01 T00011006  RH  095%=      5-min Rain = 0
KMD1 140622Z 05005KT 00/M01 A3035 RMK A01 T00011006  RH  095%=      5-min Rain = 0
KMD1 140623Z 06005KT 00/M01 A3035 RMK A01 T00011006  RH  095%=      5-min Rain = 0
KMD1 140624Z 05005KT 00/M01 A3035 RMK A01 T00011006  RH  095%=      5-min Rain = 0
KMD1 140625Z 06005KT 00/M01 A3035 RMK A01 T00011006  RH  095%=      5-min Rain = 0
KMD1 140626Z 06006KT 00/M01 A3035 RMK A01 T00021006  RH  095%=      5-min Rain = 0
KMD1 140627Z 06006KT 00/M01 A3035 RMK A01 T00021006  RH  095%=      5-min Rain = 0
KMD1 140628Z 06006KT 00/M01 A3035 RMK A01 T00021006  RH  095%=      5-min Rain = 0
KMD1 140629Z 06006KT 00/M01 A3035 RMK A01 T00021006  RH  095%=      5-min Rain = 0
KMD1 140630Z 06007KT 00/M01 A3035 RMK A01 T00021006  RH  094%=      5-min Rain = 0
KMD1 140631Z 06007KT 00/M01 A3035 RMK A01 T00021006  RH  094%=      5-min Rain = 0
KMD1 140632Z 06005KT 00/M01 A3035 RMK A01 T00021006  RH  094%=      5-min Rain = 0
KMD1 140633Z 06006KT 00/M01 A3035 RMK A01 T00031006  RH  094%=      5-min Rain = 0
KMD1 140634Z 07006KT 00/M01 A3035 RMK A01 T00031005  RH  094%=      5-min Rain = 0
KMD1 140635Z 06005KT 00/M01 A3035 RMK A01 T00031005  RH  094%=      5-min Rain = 0
KMD1 140636Z 07006KT 00/M01 A3035 RMK A01 T00031005  RH  094%=      5-min Rain = 0
KMD1 140637Z 07007KT 00/M01 A3035 RMK A01 T00031005  RH  094%=      5-min Rain = 0
KMD1 140638Z 07006KT 00/M01 A3035 RMK A01 T00031005  RH  094%=      5-min Rain = 0
KMD1 140639Z 07006KT 00/M01 A3035 RMK A01 T00031005  RH  094%=      5-min Rain = 0
KMD1 140640Z 06005KT 00/M01 A3035 RMK A01 T00031005  RH  094%=      5-min Rain = 0
KMD1 140641Z 06006KT 00/M01 A3035 RMK A01 T00031005  RH  094%=      5-min Rain = 0
KMD1 140642Z 06006KT 00/M01 A3035 RMK A01 T00031005  RH  094%=      5-min Rain = 0
KMD1 140643Z 06008KT 00/M01 A3035 RMK A01 T00031005  RH  094%=      5-min Rain = 0
KMD1 140644Z 07007KT 00/M01 A3035 RMK A01 T00031005  RH  094%=      5-min Rain = 0
KMD1 140645Z 06007KT 00/M01 A3035 RMK A01 T00031006  RH  094%=      5-min Rain = 0
KMD1 140646Z 06007KT 00/M01 A3035 RMK A01 T00031006  RH  094%=      5-min Rain = 0
KMD1 140647Z 07006KT 00/M01 A3035 RMK A01 T00021006  RH  094%=      5-min Rain = 0
KMD1 140648Z 07006KT 00/M01 A3035 RMK A01 T00021007  RH  094%=      5-min Rain = 0
KMD1 140649Z 07007KT 00/M01 A3035 RMK A01 T00021007  RH  094%=      5-min Rain = 0
KMD1 140650Z 07008KT 00/M01 A3035 RMK A01 T00011008  RH  094%=      5-min Rain = 0
KMD1 140651Z 07006KT 00/M01 A3035 RMK A01 T00011008  RH  094%=      5-min Rain = 0
KMD1 140652Z 07006KT 00/M01 A3035 RMK A01 T00011008  RH  094%=      5-min Rain = 0
KMD1 140653Z 07006KT 00/01 A3035 RMK A01 T000000-8  RH  094%=      5-min Rain = 0
KMD1 140654Z 07006KT 00/01 A3035 RMK A01 T000000-8  RH  094%=      5-min Rain = 0
KMD1 140655Z 07005KT 00/01 A3035 RMK A01 T000000-8  RH  094%=      5-min Rain = 0
KMD1 140656Z 07005KT M00/M01 A3035 RMK A01 T10011009  RH  094%=      5-min Rain = 0
KMD1 140657Z 07005KT M00/M01 A3035 RMK A01 T10011009  RH  094%=      5-min Rain = 0
KMD1 140658Z 07006KT M00/M01 A3036 RMK A01 T10011009  RH  095%=      5-min Rain = 0
KMD1 140659Z 07005KT M00/M01 A3036 RMK A01 T10011009  RH  095%=      5-min Rain = 0
KMD1 140700Z 07005KT M00/M01 A3036 RMK A01 T10011009  RH  095%=      5-min Rain = 0
KMD1 140701Z 07005KT M00/M01 A3036 RMK A01 T10021009  RH  095%=      5-min Rain = 0
KMD1 140702Z 06005KT M00/M01 A3036 RMK A01 T10021009  RH  095%=      5-min Rain = 0
KMD1 140703Z 06005KT M00/M01 A3036 RMK A01 T10021009  RH  095%=      5-min Rain = 0
KMD1 140704Z 06005KT M00/M01 A3036 RMK A01 T10021009  RH  095%=      5-min Rain = 0
KMD1 140705Z 06005KT M00/M01 A3036 RMK A01 T10031010  RH  095%=      5-min Rain = 0
KMD1 140706Z 06004KT M00/M01 A3036 RMK A01 T10031009  RH  095%=      5-min Rain = 0
KMD1 140707Z 06005KT M00/M01 A3036 RMK A01 T10031009  RH  095%=      5-min Rain = 0
KMD1 140708Z 07004KT M00/M01 A3036 RMK A01 T10031010  RH  095%=      5-min Rain = 0
KMD1 140709Z 07004KT M00/M01 A3036 RMK A01 T10031010  RH  095%=      5-min Rain = 0
KMD1 140710Z 07004KT M00/M01 A3036 RMK A01 T10041010  RH  095%=      5-min Rain = 0
KMD1 140711Z 08003KT M00/M01 A3036 RMK A01 T10041010  RH  095%=      5-min Rain = 0
KMD1 140712Z 08004KT M00/M01 A3036 RMK A01 T10041011  RH  095%=      5-min Rain = 0
KMD1 140713Z 08004KT M00/M01 A3036 RMK A01 T10041011  RH  096%=      5-min Rain = 0
KMD1 140714Z 08004KT M00/M01 A3036 RMK A01 T10041010  RH  096%=      5-min Rain = 0
KMD1 140715Z 08004KT M01/M01 A3036 RMK A01 T10051011  RH  096%=      5-min Rain = 0
KMD1 140716Z 08004KT M01/M01 A3036 RMK A01 T10051011  RH  096%=      5-min Rain = 0
KMD1 140717Z 08004KT M01/M01 A3036 RMK A01 T10051011  RH  096%=      5-min Rain = 0
KMD1 140718Z 07004KT M01/M01 A3036 RMK A01 T10051011  RH  096%=      5-min Rain = 0
KMD1 140719Z 06004KT M01/M01 A3036 RMK A01 T10061011  RH  096%=      5-min Rain = 0
KMD1 140720Z 06004KT M01/M01 A3036 RMK A01 T10061011  RH  096%=      5-min Rain = 0
KMD1 140721Z 06004KT M01/M01 A3036 RMK A01 T10061011  RH  096%=      5-min Rain = 0
KMD1 140722Z 06004KT M01/M01 A3036 RMK A01 T10061011  RH  096%=      5-min Rain = 0
KMD1 140723Z 06004KT M01/M01 A3036 RMK A01 T10061011  RH  096%=      5-min Rain = 0
KMD1 140724Z 06004KT M01/M01 A3036 RMK A01 T10061011  RH  097%=      5-min Rain = 0
KMD1 140725Z 06004KT M01/M01 A3036 RMK A01 T10071012  RH  097%=      5-min Rain = 0
KMD1 140726Z 06004KT M01/M01 A3036 RMK A01 T10071012  RH  097%=      5-min Rain = 0
KMD1 140727Z 06004KT M01/M01 A3036 RMK A01 T10071011  RH  097%=      5-min Rain = 0
KMD1 140728Z 07004KT M01/M01 A3036 RMK A01 T10071011  RH  097%=      5-min Rain = 0
KMD1 140729Z 06003KT M01/M01 A3035 RMK A01 T10071012  RH  097%=      5-min Rain = 0
KMD1 140730Z 07003KT M01/M01 A3035 RMK A01 T10081012  RH  097%=      5-min Rain = 0
KMD1 140731Z 07003KT M01/M01 A3035 RMK A01 T10081012  RH  097%=      5-min Rain = 0
KMD1 140732Z 07003KT M01/M01 A3035 RMK A01 T10081012  RH  097%=      5-min Rain = 0
KMD1 140733Z 07003KT M01/M01 A3035 RMK A01 T10081012  RH  097%=      5-min Rain = 0
KMD1 140734Z 08003KT M01/M01 A3035 RMK A01 T10081013  RH  097%=      5-min Rain = 0
KMD1 140735Z 07003KT M01/M01 A3035 RMK A01 T10081013  RH  097%=      5-min Rain = 0
KMD1 140736Z 07003KT M01/M01 A3035 RMK A01 T10081013  RH  097%=      5-min Rain = 0
KMD1 140737Z 07003KT M01/M01 A3035 RMK A01 T10091013  RH  097%=      5-min Rain = 0
KMD1 140738Z 07003KT M01/M01 A3035 RMK A01 T10091013  RH  097%=      5-min Rain = 0
KMD1 140739Z 07003KT M01/M01 A3035 RMK A01 T10101014  RH  097%=      5-min Rain = 0
KMD1 140740Z 07003KT M01/M01 A3035 RMK A01 T10091013  RH  097%=      5-min Rain = 0
KMD1 140741Z 07003KT M01/M01 A3035 RMK A01 T10101014  RH  097%=      5-min Rain = 0
KMD1 140742Z 07003KT M01/M01 A3035 RMK A01 T10101014  RH  097%=      5-min Rain = 0
KMD1 140743Z 06003KT M01/M01 A3035 RMK A01 T10101014  RH  097%=      5-min Rain = 0
KMD1 140744Z 06003KT M01/M01 A3035 RMK A01 T10101013  RH  097%=      5-min Rain = 0
KMD1 140745Z 06003KT M01/M01 A3035 RMK A01 T10101013  RH  098%=      5-min Rain = 0
KMD1 140746Z 06003KT M01/M01 A3035 RMK A01 T10101014  RH  098%=      5-min Rain = 0
KMD1 140747Z 06003KT M01/M01 A3035 RMK A01 T10101014  RH  098%=      5-min Rain = 0
KMD1 140748Z 06003KT M01/M01 A3035 RMK A01 T10101014  RH  098%=      5-min Rain = 0
KMD1 140749Z 06003KT M01/M01 A3035 RMK A01 T10111014  RH  098%=      5-min Rain = 0
KMD1 140750Z 06003KT M01/M01 A3035 RMK A01 T10111014  RH  098%=      5-min Rain = 0
KMD1 140751Z 06003KT M01/M01 A3035 RMK A01 T10111014  RH  098%=      5-min Rain = 0
KMD1 140752Z 06003KT M01/M01 A3035 RMK A01 T10111014  RH  098%=      5-min Rain = 0
KMD1 140753Z 06003KT M01/M01 A3035 RMK A01 T10111014  RH  098%=      5-min Rain = 0
KMD1 140754Z 06003KT M01/M02 A3035 RMK A01 T10121015  RH  098%=      5-min Rain = 0
KMD1 140755Z 07003KT M01/M02 A3035 RMK A01 T10121015  RH  098%=      5-min Rain = 0
KMD1 140756Z 07003KT M01/M02 A3035 RMK A01 T10121015  RH  098%=      5-min Rain = 0
KMD1 140757Z 07003KT M01/M02 A3035 RMK A01 T10121015  RH  098%=      5-min Rain = 0
KMD1 140758Z 07003KT M01/M02 A3035 RMK A01 T10121015  RH  098%=      5-min Rain = 0
KMD1 140759Z 07003KT M01/M02 A3035 RMK A01 T10121015  RH  098%=      5-min Rain = 0
KMD1 140800Z 07003KT M01/M02 A3035 RMK A01 T10121015  RH  098%=      5-min Rain = 0
KMD1 140801Z 07003KT M01/M02 A3035 RMK A01 T10131015  RH  098%=      5-min Rain = 0
KMD1 140802Z 07003KT M01/M02 A3035 RMK A01 T10131015  RH  098%=      5-min Rain = 0
KMD1 140803Z 07003KT M01/M02 A3035 RMK A01 T10131015  RH  098%=      5-min Rain = 0
KMD1 140804Z 07003KT M01/M02 A3035 RMK A01 T10131015  RH  098%=      5-min Rain = 0
KMD1 140805Z 08003KT M01/M02 A3035 RMK A01 T10131015  RH  098%=      5-min Rain = 0
KMD1 140806Z 08002KT M01/M02 A3035 RMK A01 T10131015  RH  098%=      5-min Rain = 0
KMD1 140807Z 08003KT M01/M02 A3035 RMK A01 T10131015  RH  098%=      5-min Rain = 0
KMD1 140808Z 08003KT M01/M02 A3035 RMK A01 T10131015  RH  098%=      5-min Rain = 0
KMD1 140809Z 08003KT M01/M02 A3035 RMK A01 T10131015  RH  098%=      5-min Rain = 0
KMD1 140810Z 07003KT M01/M02 A3035 RMK A01 T10131015  RH  098%=      5-min Rain = 0
KMD1 140811Z 07003KT M01/M02 A3035 RMK A01 T10131015  RH  099%=      5-min Rain = 0
KMD1 140812Z 06003KT M01/M02 A3035 RMK A01 T10131015  RH  099%=      5-min Rain = 0
KMD1 140813Z 07004KT M01/M02 A3035 RMK A01 T10131015  RH  099%=      5-min Rain = 0
KMD1 140814Z 06003KT M01/M02 A3035 RMK A01 T10131015  RH  099%=      5-min Rain = 0
KMD1 140815Z 06003KT M01/M02 A3035 RMK A01 T10131015  RH  099%=      5-min Rain = 0
KMD1 140816Z 06004KT M01/M02 A3035 RMK A01 T10131015  RH  099%=      5-min Rain = 0
KMD1 140817Z 06003KT M01/M02 A3035 RMK A01 T10131015  RH  099%=      5-min Rain = 0
KMD1 140818Z 06003KT M01/M02 A3035 RMK A01 T10131015  RH  099%=      5-min Rain = 0
KMD1 140819Z 07003KT M01/M02 A3035 RMK A01 T10131015  RH  099%=      5-min Rain = 0
KMD1 140820Z 08003KT M01/M02 A3035 RMK A01 T10131015  RH  099%=      5-min Rain = 0
KMD1 140821Z 07003KT M01/M02 A3035 RMK A01 T10131015  RH  099%=      5-min Rain = 0
KMD1 140822Z 07003KT M01/M02 A3035 RMK A01 T10131015  RH  099%=      5-min Rain = 0
KMD1 140823Z 07003KT M01/M02 A3035 RMK A01 T10131015  RH  099%=      5-min Rain = 0
KMD1 140824Z 07003KT M01/M02 A3035 RMK A01 T10131015  RH  099%=      5-min Rain = 0
KMD1 140825Z 07003KT M01/M02 A3035 RMK A01 T10131015  RH  099%=      5-min Rain = 0
KMD1 140826Z 07004KT M01/M02 A3035 RMK A01 T10131015  RH  099%=      5-min Rain = 0
KMD1 140827Z 06003KT M01/M02 A3035 RMK A01 T10141016  RH  099%=      5-min Rain = 0
KMD1 140828Z 06004KT M01/M02 A3035 RMK A01 T10141016  RH  099%=      5-min Rain = 0
KMD1 140829Z 07003KT M01/M02 A3035 RMK A01 T10141016  RH  099%=      5-min Rain = 0
KMD1 140830Z 07003KT M01/M02 A3035 RMK A01 T10141016  RH  099%=      5-min Rain = 0
KMD1 140831Z 07003KT M01/M02 A3035 RMK A01 T10141016  RH  099%=      5-min Rain = 0
KMD1 140832Z 07003KT M02/M02 A3035 RMK A01 T10151016  RH  099%=      5-min Rain = 0
KMD1 140833Z 07003KT M01/M02 A3035 RMK A01 T10141016  RH  099%=      5-min Rain = 0
KMD1 140834Z 07004KT M02/M02 A3035 RMK A01 T10151017  RH  099%=      5-min Rain = 0
KMD1 140835Z 08003KT M02/M02 A3035 RMK A01 T10151017  RH  099%=      5-min Rain = 0
KMD1 140836Z 08003KT M02/M02 A3035 RMK A01 T10151016  RH  099%=      5-min Rain = 0
KMD1 140837Z 08003KT M02/M02 A3035 RMK A01 T10151016  RH  099%=      5-min Rain = 0
KMD1 140838Z 09003KT M02/M02 A3035 RMK A01 T10151016  RH  099%=      5-min Rain = 0
KMD1 140839Z 09003KT M02/M02 A3035 RMK A01 T10151016  RH  099%=      5-min Rain = 0
KMD1 140840Z 09003KT M02/M02 A3035 RMK A01 T10151017  RH  099%=      5-min Rain = 0
KMD1 140841Z 08003KT M02/M02 A3035 RMK A01 T10151017  RH  099%=      5-min Rain = 0
KMD1 140842Z 08003KT M02/M02 A3035 RMK A01 T10151016  RH  099%=      5-min Rain = 0
KMD1 140843Z 08002KT M02/M02 A3035 RMK A01 T10151017  RH  099%=      5-min Rain = 0
KMD1 140844Z 08002KT M02/M02 A3035 RMK A01 T10161017  RH  099%=      5-min Rain = 0
KMD1 140845Z 08003KT M02/M02 A3035 RMK A01 T10151017  RH  099%=      5-min Rain = 0
KMD1 140846Z 08003KT M02/M02 A3035 RMK A01 T10161017  RH  099%=      5-min Rain = 0
KMD1 140847Z 09002KT M02/M02 A3035 RMK A01 T10151017  RH  099%=      5-min Rain = 0
KMD1 140848Z 09002KT M02/M02 A3035 RMK A01 T10161017  RH  099%=      5-min Rain = 0
KMD1 140849Z 09002KT M02/M02 A3035 RMK A01 T10161017  RH  099%=      5-min Rain = 0
KMD1 140850Z 09002KT M02/M02 A3035 RMK A01 T10161018  RH  099%=      5-min Rain = 0
KMD1 140851Z 09002KT M02/M02 A3035 RMK A01 T10161018  RH  099%=      5-min Rain = 0
KMD1 140852Z 10002KT M02/M02 A3035 RMK A01 T10161018  RH  099%=      5-min Rain = 0
KMD1 140853Z 11002KT M02/M02 A3035 RMK A01 T10161018  RH  099%=      5-min Rain = 0
KMD1 140854Z 12002KT M02/M02 A3035 RMK A01 T10161017  RH  099%=      5-min Rain = 0
KMD1 140855Z 12001KT M02/M02 A3035 RMK A01 T10161017  RH  099%=      5-min Rain = 0
KMD1 140856Z 13001KT M02/M02 A3035 RMK A01 T10161017  RH  099%=      5-min Rain = 0
KMD1 140857Z 13001KT M02/M02 A3035 RMK A01 T10161017  RH  099%=      5-min Rain = 0
KMD1 140858Z 13002KT M02/M02 A3035 RMK A01 T10171018  RH  099%=      5-min Rain = 0
KMD1 140859Z 13001KT M02/M02 A3035 RMK A01 T10161017  RH  099%=      5-min Rain = 0
KMD1 140900Z 12002KT M02/M02 A3035 RMK A01 T10161017  RH  099%=      5-min Rain = 0
KMD1 140901Z 12002KT M02/M02 A3035 RMK A01 T10171017  RH  100%=      5-min Rain = 0
KMD1 140902Z 13002KT M02/M02 A3035 RMK A01 T10171017  RH  100%=      5-min Rain = 0
KMD1 140903Z 13002KT M02/M02 A3035 RMK A01 T10161017  RH  100%=      5-min Rain = 0
KMD1 140904Z 13002KT M02/M02 A3035 RMK A01 T10161016  RH  100%=      5-min Rain = 0
KMD1 140905Z 13002KT M02/M02 A3035 RMK A01 T10161017  RH  100%=      5-min Rain = 0
KMD1 140906Z 14002KT M02/M02 A3035 RMK A01 T10161017  RH  100%=      5-min Rain = 0
KMD1 140907Z 13002KT M02/M02 A3035 RMK A01 T10161017  RH  100%=      5-min Rain = 0
KMD1 140908Z 14002KT M02/M02 A3035 RMK A01 T10161017  RH  100%=      5-min Rain = 0
KMD1 140909Z 14002KT M02/M02 A3035 RMK A01 T10161017  RH  100%=      5-min Rain = 0
KMD1 140910Z 13002KT M02/M02 A3035 RMK A01 T10161017  RH  100%=      5-min Rain = 0
KMD1 140911Z 12001KT M02/M02 A3035 RMK A01 T10161016  RH  100%=      5-min Rain = 0
KMD1 140912Z 10001KT M02/M02 A3035 RMK A01 T10161016  RH  100%=      5-min Rain = 0
KMD1 140913Z 10001KT M02/M02 A3035 RMK A01 T10161016  RH  100%=      5-min Rain = 0
KMD1 140914Z 09001KT M02/M02 A3035 RMK A01 T10151016  RH  100%=      5-min Rain = 0
KMD1 140915Z 09001KT M02/M02 A3035 RMK A01 T10151016  RH  100%=      5-min Rain = 0
KMD1 140916Z 08001KT M02/M02 A3035 RMK A01 T10151015  RH  100%=      5-min Rain = 0
KMD1 140917Z 12001KT M02/M02 A3035 RMK A01 T10151015  RH  100%=      5-min Rain = 0
KMD1 140918Z 11001KT M02/M02 A3035 RMK A01 T10151015  RH  100%=      5-min Rain = 0
KMD1 140919Z 11002KT M01/M01 A3035 RMK A01 T10141014  RH  100%=      5-min Rain = 0
KMD1 140920Z 12002KT M01/M01 A3035 RMK A01 T10141014  RH  100%=      5-min Rain = 0
KMD1 140921Z 12004KT M01/M01 A3035 RMK A01 T10141014  RH  100%=      5-min Rain = 0
KMD1 140922Z 12003KT M01/M01 A3035 RMK A01 T10141014  RH  100%=      5-min Rain = 0
KMD1 140923Z 12004KT M01/M01 A3035 RMK A01 T10141014  RH  100%=      5-min Rain = 0
KMD1 140924Z 13004KT M01/M01 A3035 RMK A01 T10141014  RH  100%=      5-min Rain = 0
KMD1 140925Z 13005KT M01/M01 A3035 RMK A01 T10131014  RH  100%=      5-min Rain = 0
KMD1 140926Z 12004KT M01/M01 A3035 RMK A01 T10131014  RH  100%=      5-min Rain = 0
KMD1 140927Z 11004KT M01/M01 A3035 RMK A01 T10141014  RH  100%=      5-min Rain = 0
KMD1 140928Z 11004KT M01/M01 A3035 RMK A01 T10131014  RH  100%=      5-min Rain = 0
KMD1 140929Z 11004KT M01/M01 A3035 RMK A01 T10141014  RH  100%=      5-min Rain = 0
KMD1 140930Z 11004KT M01/M01 A3035 RMK A01 T10141014  RH  100%=      5-min Rain = 0
KMD1 140931Z 11003KT M01/M01 A3035 RMK A01 T10141014  RH  100%=      5-min Rain = 0
KMD1 140932Z 10004KT M01/M02 A3035 RMK A01 T10141015  RH  100%=      5-min Rain = 0
KMD1 140933Z 09003KT M01/M02 A3035 RMK A01 T10141015  RH  100%=      5-min Rain = 0
KMD1 140934Z 08003KT M01/M01 A3035 RMK A01 T10141014  RH  100%=      5-min Rain = 0
KMD1 140935Z 09003KT M01/M01 A3035 RMK A01 T10141014  RH  100%=      5-min Rain = 0
KMD1 140936Z 09003KT M01/M02 A3035 RMK A01 T10141015  RH  100%=      5-min Rain = 0
KMD1 140937Z 09003KT M01/M02 A3035 RMK A01 T10141015  RH  100%=      5-min Rain = 0
KMD1 140938Z 09003KT M02/M02 A3035 RMK A01 T10151015  RH  100%=      5-min Rain = 0
KMD1 140939Z 10003KT M02/M02 A3035 RMK A01 T10151015  RH  100%=      5-min Rain = 0
KMD1 140940Z 10002KT M02/M02 A3035 RMK A01 T10151015  RH  100%=      5-min Rain = 0
KMD1 140941Z 11003KT M02/M02 A3035 RMK A01 T10151015  RH  100%=      5-min Rain = 0
KMD1 140942Z 11002KT M02/M02 A3035 RMK A01 T10151015  RH  100%=      5-min Rain = 0
KMD1 140943Z 11002KT M02/M02 A3035 RMK A01 T10161016  RH  100%=      5-min Rain = 0
KMD1 140944Z 11002KT M02/M02 A3035 RMK A01 T10151016  RH  100%=      5-min Rain = 0
KMD1 140945Z 12002KT M02/M02 A3035 RMK A01 T10151016  RH  100%=      5-min Rain = 0
KMD1 140946Z 12002KT M02/M02 A3035 RMK A01 T10161016  RH  100%=      5-min Rain = 0
KMD1 140947Z 13002KT M02/M02 A3035 RMK A01 T10161016  RH  100%=      5-min Rain = 0
KMD1 140948Z 13002KT M02/M02 A3035 RMK A01 T10161017  RH  100%=      5-min Rain = 0
KMD1 140949Z 13001KT M02/M02 A3035 RMK A01 T10171017  RH  100%=      5-min Rain = 0
KMD1 140950Z 12002KT M02/M02 A3035 RMK A01 T10171017  RH  100%=      5-min Rain = 0
KMD1 140951Z 12002KT M02/M02 A3035 RMK A01 T10171017  RH  100%=      5-min Rain = 0
KMD1 140952Z 12002KT M02/M02 A3035 RMK A01 T10171017  RH  100%=      5-min Rain = 0
KMD1 140953Z 11002KT M02/M02 A3035 RMK A01 T10171017  RH  100%=      5-min Rain = 0
KMD1 140954Z 11001KT M02/M02 A3035 RMK A01 T10171017  RH  100%=      5-min Rain = 0
KMD1 140955Z 10002KT M02/M02 A3035 RMK A01 T10171018  RH  100%=      5-min Rain = 0
KMD1 140956Z 10002KT M02/M02 A3035 RMK A01 T10181018  RH  100%=      5-min Rain = 0
KMD1 140957Z 09002KT M02/M02 A3035 RMK A01 T10181019  RH  100%=      5-min Rain = 0
KMD1 140958Z 05001KT M02/M02 A3035 RMK A01 T10181019  RH  100%=      5-min Rain = 0
KMD1 140959Z 05001KT M02/M02 A3035 RMK A01 T10191019  RH  100%=      5-min Rain = 0
KMD1 141000Z 05001KT M02/M02 A3035 RMK A01 T10191020  RH  100%=      5-min Rain = 0
KMD1 141001Z 05001KT M02/M02 A3035 RMK A01 T10191020  RH  100%=      5-min Rain = 0
KMD1 141002Z 06001KT M02/M02 A3035 RMK A01 T10201020  RH  100%=      5-min Rain = 0
KMD1 141003Z 06000KT M02/M02 A3035 RMK A01 T10191020  RH  100%=      5-min Rain = 0
KMD1 141004Z 06001KT M02/M02 A3035 RMK A01 T10191019  RH  100%=      5-min Rain = 0
KMD1 141005Z 05001KT M02/M02 A3035 RMK A01 T10191020  RH  100%=      5-min Rain = 0
KMD1 141006Z 05001KT M02/M02 A3035 RMK A01 T10191020  RH  100%=      5-min Rain = 0
KMD1 141007Z 04001KT M02/M02 A3035 RMK A01 T10201020  RH  100%=      5-min Rain = 0
KMD1 141008Z 04001KT M02/M02 A3035 RMK A01 T10201020  RH  100%=      5-min Rain = 0
KMD1 141009Z 04001KT M02/M02 A3035 RMK A01 T10201020  RH  100%=      5-min Rain = 0
KMD1 141010Z 04001KT M02/M02 A3035 RMK A01 T10201020  RH  100%=      5-min Rain = 0
KMD1 141011Z 04001KT M02/M02 A3035 RMK A01 T10201020  RH  100%=      5-min Rain = 0
KMD1 141012Z 02001KT M02/M02 A3035 RMK A01 T10211021  RH  100%=      5-min Rain = 0
KMD1 141013Z 02001KT M02/M02 A3035 RMK A01 T10211021  RH  100%=      5-min Rain = 0
KMD1 141014Z 02001KT M02/M02 A3035 RMK A01 T10211022  RH  100%=      5-min Rain = 0
KMD1 141015Z 02001KT M02/M02 A3035 RMK A01 T10211022  RH  100%=      5-min Rain = 0
KMD1 141016Z 03001KT M02/M02 A3035 RMK A01 T10211021  RH  100%=      5-min Rain = 0
KMD1 141017Z 03001KT M02/M02 A3035 RMK A01 T10211021  RH  100%=      5-min Rain = 0
KMD1 141018Z 02001KT M02/M02 A3035 RMK A01 T10221022  RH  100%=      5-min Rain = 0
KMD1 141019Z 03002KT M02/M02 A3035 RMK A01 T10221022  RH  100%=      5-min Rain = 0
KMD1 141020Z 03002KT M02/M02 A3035 RMK A01 T10221023  RH  100%=      5-min Rain = 0
KMD1 141021Z 03001KT M02/M02 A3035 RMK A01 T10221023  RH  100%=      5-min Rain = 0
KMD1 141022Z 04001KT M02/M02 A3035 RMK A01 T10231023  RH  100%=      5-min Rain = 0
KMD1 141023Z 05002KT M02/M02 A3035 RMK A01 T10231023  RH  100%=      5-min Rain = 0
KMD1 141024Z 05002KT M02/M02 A3035 RMK A01 T10231023  RH  100%=      5-min Rain = 0
KMD1 141025Z 05001KT M02/M02 A3035 RMK A01 T10221022  RH  100%=      5-min Rain = 0
KMD1 141026Z 06002KT M02/M02 A3035 RMK A01 T10221022  RH  100%=      5-min Rain = 0
KMD1 141027Z 03002KT M02/M02 A3035 RMK A01 T10231023  RH  100%=      5-min Rain = 0
KMD1 141028Z 03002KT M02/M02 A3035 RMK A01 T10231023  RH  100%=      5-min Rain = 0
KMD1 141029Z 05002KT M02/M02 A3035 RMK A01 T10231023  RH  100%=      5-min Rain = 0
KMD1 141030Z 04003KT M02/M02 A3035 RMK A01 T10241024  RH  100%=      5-min Rain = 0
KMD1 141031Z 03003KT M02/M02 A3035 RMK A01 T10241024  RH  100%=      5-min Rain = 0
KMD1 141032Z 05002KT M02/M02 A3035 RMK A01 T10241024  RH  100%=      5-min Rain = 0
KMD1 141033Z 05002KT M03/M03 A3035 RMK A01 T10251025  RH  100%=      5-min Rain = 0
KMD1 141034Z 05002KT M03/M03 A3035 RMK A01 T10251025  RH  100%=      5-min Rain = 0
KMD1 141035Z 03001KT M03/M03 A3035 RMK A01 T10251025  RH  100%=      5-min Rain = 0
KMD1 141036Z 05002KT M02/M03 A3035 RMK A01 T10241025  RH  100%=      5-min Rain = 0
KMD1 141037Z 05001KT M02/M03 A3035 RMK A01 T10241025  RH  100%=      5-min Rain = 0
KMD1 141038Z 08001KT M03/M03 A3035 RMK A01 T10251025  RH  100%=      5-min Rain = 0
KMD1 141039Z 09001KT M03/M03 A3035 RMK A01 T10251025  RH  100%=      5-min Rain = 0
KMD1 141040Z 09001KT M03/M03 A3035 RMK A01 T10251025  RH  100%=      5-min Rain = 0
KMD1 141041Z 09002KT M02/M02 A3035 RMK A01 T10241024  RH  100%=      5-min Rain = 0
KMD1 141042Z 10001KT M02/M02 A3035 RMK A01 T10241024  RH  100%=      5-min Rain = 0
KMD1 141043Z 10002KT M02/M02 A3035 RMK A01 T10231024  RH  100%=      5-min Rain = 0
KMD1 141044Z 08002KT M02/M02 A3035 RMK A01 T10231024  RH  100%=      5-min Rain = 0
KMD1 141045Z 07002KT M02/M02 A3035 RMK A01 T10231023  RH  100%=      5-min Rain = 0
KMD1 141046Z 08003KT M02/M02 A3035 RMK A01 T10231023  RH  100%=      5-min Rain = 0
KMD1 141047Z 06003KT M02/M02 A3035 RMK A01 T10221023  RH  100%=      5-min Rain = 0
KMD1 141048Z 06003KT M02/M02 A3035 RMK A01 T10221023  RH  100%=      5-min Rain = 0
KMD1 141049Z 07005KT M02/M02 A3035 RMK A01 T10231023  RH  100%=      5-min Rain = 0
KMD1 141050Z 07004KT M02/M02 A3035 RMK A01 T10221022  RH  100%=      5-min Rain = 0
KMD1 141051Z 06004KT M02/M02 A3035 RMK A01 T10221022  RH  100%=      5-min Rain = 0
KMD1 141052Z 04004KT M02/M02 A3035 RMK A01 T10221022  RH  100%=      5-min Rain = 0
KMD1 141053Z 04004KT M02/M02 A3035 RMK A01 T10231024  RH  100%=      5-min Rain = 0
KMD1 141054Z 04005KT M03/M03 A3035 RMK A01 T10251025  RH  100%=      5-min Rain = 0
KMD1 141055Z 04005KT M03/M03 A3035 RMK A01 T10251025  RH  100%=      5-min Rain = 0
KMD1 141056Z 04005KT M03/M03 A3035 RMK A01 T10251025  RH  100%=      5-min Rain = 0
KMD1 141057Z 03004KT M03/M03 A3035 RMK A01 T10251025  RH  100%=      5-min Rain = 0
KMD1 141058Z 03003KT M03/M03 A3035 RMK A01 T10251026  RH  100%=      5-min Rain = 0
KMD1 141059Z 03004KT M03/M03 A3035 RMK A01 T10261026  RH  100%=      5-min Rain = 0
KMD1 141100Z 03003KT M03/M03 A3035 RMK A01 T10271027  RH  100%=      5-min Rain = 0
KMD1 141101Z 04003KT M03/M03 A3035 RMK A01 T10271027  RH  100%=      5-min Rain = 0
KMD1 141102Z 04003KT M03/M03 A3035 RMK A01 T10281028  RH  100%=      5-min Rain = 0
KMD1 141103Z 04002KT M03/M03 A3035 RMK A01 T10271027  RH  100%=      5-min Rain = 0
KMD1 141104Z 05004KT M03/M03 A3035 RMK A01 T10281028  RH  100%=      5-min Rain = 0
KMD1 141105Z 04003KT M03/M03 A3035 RMK A01 T10281028  RH  100%=      5-min Rain = 0
KMD1 141106Z 05003KT M03/M03 A3035 RMK A01 T10281028  RH  100%=      5-min Rain = 0
KMD1 141107Z 05003KT M03/M03 A3035 RMK A01 T10281028  RH  100%=      5-min Rain = 0
KMD1 141108Z 05003KT M03/M03 A3035 RMK A01 T10281028  RH  100%=      5-min Rain = 0
KMD1 141109Z 06002KT M03/M03 A3035 RMK A01 T10271028  RH  100%=      5-min Rain = 0
KMD1 141110Z 05003KT M03/M03 A3035 RMK A01 T10271027  RH  100%=      5-min Rain = 0
KMD1 141111Z 06003KT M03/M03 A3035 RMK A01 T10271027  RH  100%=      5-min Rain = 0
KMD1 141112Z 06003KT M03/M03 A3035 RMK A01 T10261027  RH  100%=      5-min Rain = 0
KMD1 141113Z 05003KT M03/M03 A3035 RMK A01 T10261026  RH  100%=      5-min Rain = 0
KMD1 141114Z 05003KT M03/M03 A3035 RMK A01 T10251026  RH  100%=      5-min Rain = 0
KMD1 141115Z 05002KT M03/M03 A3035 RMK A01 T10251026  RH  100%=      5-min Rain = 0
KMD1 141116Z 06002KT M03/M03 A3035 RMK A01 T10251025  RH  100%=      5-min Rain = 0
KMD1 141117Z 06001KT M03/M03 A3035 RMK A01 T10251025  RH  100%=      5-min Rain = 0
KMD1 141118Z 07001KT M03/M03 A3035 RMK A01 T10251025  RH  100%=      5-min Rain = 0
KMD1 141119Z 09002KT M03/M03 A3035 RMK A01 T10251025  RH  100%=      5-min Rain = 0
KMD1 141120Z 08001KT M03/M03 A3035 RMK A01 T10251025  RH  100%=      5-min Rain = 0
KMD1 141121Z 07000KT M03/M03 A3035 RMK A01 T10251025  RH  100%=      5-min Rain = 0
KMD1 141122Z 00000KT M03/M03 A3035 RMK A01 T10251025  RH  100%=      5-min Rain = 0
KMD1 141123Z 00000KT M03/M03 A3035 RMK A01 T10251025  RH  100%=      5-min Rain = 0
KMD1 141124Z 16001KT M03/M03 A3035 RMK A01 T10251026  RH  100%=      5-min Rain = 0
KMD1 141125Z 15002KT M03/M03 A3035 RMK A01 T10251026  RH  100%=      5-min Rain = 0
KMD1 141126Z 13002KT M03/M03 A3035 RMK A01 T10251026  RH  100%=      5-min Rain = 0
KMD1 141127Z 14002KT M03/M03 A3035 RMK A01 T10261026  RH  100%=      5-min Rain = 0
KMD1 141128Z 13002KT M03/M03 A3035 RMK A01 T10261026  RH  100%=      5-min Rain = 0
KMD1 141129Z 14001KT M03/M03 A3035 RMK A01 T10261026  RH  100%=      5-min Rain = 0
KMD1 141130Z 14002KT M03/M03 A3035 RMK A01 T10261026  RH  100%=      5-min Rain = 0
KMD1 141131Z 15002KT M03/M03 A3035 RMK A01 T10261026  RH  100%=      5-min Rain = 0
KMD1 141132Z 14003KT M03/M03 A3035 RMK A01 T10261026  RH  100%=      5-min Rain = 0
KMD1 141133Z 15003KT M03/M03 A3035 RMK A01 T10261026  RH  100%=      5-min Rain = 0
KMD1 141134Z 14002KT M03/M03 A3035 RMK A01 T10261026  RH  100%=      5-min Rain = 0
KMD1 141135Z 13003KT M03/M03 A3035 RMK A01 T10261026  RH  100%=      5-min Rain = 0
KMD1 141136Z 13003KT M03/M03 A3035 RMK A01 T10261026  RH  100%=      5-min Rain = 0
KMD1 141137Z 12003KT M03/M03 A3035 RMK A01 T10251026  RH  100%=      5-min Rain = 0
KMD1 141138Z 12003KT M03/M03 A3035 RMK A01 T10261026  RH  100%=      5-min Rain = 0
KMD1 141139Z 12003KT M03/M03 A3035 RMK A01 T10261026  RH  100%=      5-min Rain = 0
KMD1 141140Z 11003KT M03/M03 A3035 RMK A01 T10261026  RH  100%=      5-min Rain = 0
KMD1 141141Z 11002KT M03/M03 A3035 RMK A01 T10261026  RH  100%=      5-min Rain = 0
KMD1 141142Z 11002KT M03/M03 A3035 RMK A01 T10261026  RH  100%=      5-min Rain = 0
KMD1 141143Z 11003KT M03/M03 A3035 RMK A01 T10261026  RH  100%=      5-min Rain = 0
KMD1 141144Z 11002KT M03/M03 A3035 RMK A01 T10251026  RH  100%=      5-min Rain = 0
KMD1 141145Z 11002KT M03/M03 A3035 RMK A01 T10251025  RH  100%=      5-min Rain = 0
KMD1 141146Z 11002KT M02/M02 A3035 RMK A01 T10241024  RH  100%=      5-min Rain = 0
KMD1 141147Z 11002KT M02/M02 A3035 RMK A01 T10241024  RH  100%=      5-min Rain = 0
KMD1 141148Z 11002KT M02/M02 A3035 RMK A01 T10241024  RH  100%=      5-min Rain = 0
KMD1 141149Z 11002KT M02/M02 A3035 RMK A01 T10241024  RH  100%=      5-min Rain = 0
KMD1 141150Z 10002KT M02/M02 A3035 RMK A01 T10231023  RH  100%=      5-min Rain = 0
KMD1 141151Z 11002KT M02/M02 A3035 RMK A01 T10231023  RH  100%=      5-min Rain = 0
KMD1 141152Z 10001KT M02/M02 A3035 RMK A01 T10231023  RH  100%=      5-min Rain = 0
KMD1 141153Z 11002KT M02/M02 A3035 RMK A01 T10221022  RH  100%=      5-min Rain = 0
KMD1 141154Z 11002KT M02/M02 A3035 RMK A01 T10221022  RH  100%=      5-min Rain = 0
KMD1 141155Z 10003KT M02/M02 A3035 RMK A01 T10221022  RH  100%=      5-min Rain = 0
KMD1 141156Z 09003KT M02/M02 A3035 RMK A01 T10211021  RH  100%=      5-min Rain = 0
KMD1 141157Z 09003KT M02/M02 A3035 RMK A01 T10211021  RH  100%=      5-min Rain = 0
KMD1 141158Z 09002KT M02/M02 A3035 RMK A01 T10211021  RH  100%=      5-min Rain = 0
KMD1 141159Z 09003KT M02/M02 A3035 RMK A01 T10201020  RH  100%=      5-min Rain = 0
KMD1 141200Z 10003KT M02/M02 A3035 RMK A01 T10201020  RH  100%=      5-min Rain = 0
KMD1 141201Z 10003KT M02/M02 A3035 RMK A01 T10201020  RH  100%=      5-min Rain = 0
KMD1 141202Z 11003KT M02/M02 A3035 RMK A01 T10201020  RH  100%=      5-min Rain = 0
KMD1 141203Z 10002KT M02/M02 A3035 RMK A01 T10201020  RH  100%=      5-min Rain = 0
KMD1 141204Z 10003KT M02/M02 A3035 RMK A01 T10201020  RH  100%=      5-min Rain = 0
KMD1 141205Z 09003KT M02/M02 A3035 RMK A01 T10191020  RH  100%=      5-min Rain = 0
KMD1 141206Z 09003KT M02/M02 A3036 RMK A01 T10191019  RH  100%=      5-min Rain = 0
KMD1 141207Z 09004KT M02/M02 A3036 RMK A01 T10181019  RH  100%=      5-min Rain = 0
KMD1 141208Z 09004KT M02/M02 A3036 RMK A01 T10181018  RH  100%=      5-min Rain = 0
KMD1 141209Z 09004KT M02/M02 A3036 RMK A01 T10181018  RH  100%=      5-min Rain = 0
KMD1 141210Z 09005KT M02/M02 A3036 RMK A01 T10181018  RH  100%=      5-min Rain = 0
KMD1 141211Z 11007KT M02/M02 A3036 RMK A01 T10171018  RH  100%=      5-min Rain = 0
KMD1 141212Z 10006KT M02/M02 A3036 RMK A01 T10171017  RH  100%=      5-min Rain = 0
KMD1 141213Z 10008KT M02/M02 A3036 RMK A01 T10171017  RH  100%=      5-min Rain = 0
KMD1 141214Z 11006KT M02/M02 A3036 RMK A01 T10171017  RH  100%=      5-min Rain = 0
KMD1 141215Z 10006KT M02/M02 A3036 RMK A01 T10171017  RH  100%=      5-min Rain = 0
KMD1 141216Z 11006KT M02/M02 A3036 RMK A01 T10171017  RH  100%=      5-min Rain = 0
KMD1 141217Z 10006KT M02/M02 A3036 RMK A01 T10171017  RH  100%=      5-min Rain = 0
KMD1 141218Z 10005KT M02/M02 A3036 RMK A01 T10171017  RH  100%=      5-min Rain = 0
KMD1 141219Z 10006KT M02/M02 A3036 RMK A01 T10161017  RH  100%=      5-min Rain = 0
KMD1 141220Z 10006KT M02/M02 A3036 RMK A01 T10161016  RH  100%=      5-min Rain = 0
KMD1 141221Z 11005KT M02/M02 A3036 RMK A01 T10161016  RH  100%=      5-min Rain = 0
KMD1 141222Z 11005KT M02/M02 A3036 RMK A01 T10161016  RH  100%=      5-min Rain = 0
KMD1 141223Z 11005KT M02/M02 A3036 RMK A01 T10161016  RH  100%=      5-min Rain = 0
KMD1 141224Z 12006KT M02/M02 A3036 RMK A01 T10161016  RH  100%=      5-min Rain = 0
KMD1 141225Z 12006KT M02/M02 A3036 RMK A01 T10161016  RH  100%=      5-min Rain = 0
KMD1 141226Z 11006KT M02/M02 A3036 RMK A01 T10151015  RH  100%=      5-min Rain = 0
KMD1 141227Z 11005KT M02/M02 A3036 RMK A01 T10151015  RH  100%=      5-min Rain = 0
KMD1 141228Z 11005KT M02/M02 A3036 RMK A01 T10151015  RH  100%=      5-min Rain = 0
KMD1 141229Z 12007KT M01/M01 A3037 RMK A01 T10141014  RH  100%=      5-min Rain = 0
KMD1 141230Z 11005KT M01/M01 A3037 RMK A01 T10141014  RH  100%=      5-min Rain = 0
KMD1 141231Z 12006KT M01/M01 A3037 RMK A01 T10141014  RH  100%=      5-min Rain = 0
KMD1 141232Z 12006KT M01/M01 A3037 RMK A01 T10141014  RH  100%=      5-min Rain = 0
KMD1 141233Z 12006KT M01/M01 A3037 RMK A01 T10131013  RH  100%=      5-min Rain = 0
KMD1 141234Z 11006KT M01/M01 A3037 RMK A01 T10131013  RH  100%=      5-min Rain = 0
KMD1 141235Z 12005KT M01/M01 A3037 RMK A01 T10131013  RH  100%=      5-min Rain = 0
KMD1 141236Z 12006KT M01/M01 A3037 RMK A01 T10131013  RH  100%=      5-min Rain = 0
KMD1 141237Z 11008KT M01/M01 A3037 RMK A01 T10131013  RH  100%=      5-min Rain = 0
KMD1 141238Z 12007KT M01/M01 A3037 RMK A01 T10121012  RH  100%=      5-min Rain = 0
KMD1 141239Z 12008KT M01/M01 A3037 RMK A01 T10121012  RH  100%=      5-min Rain = 0
KMD1 141240Z 12006KT M01/M01 A3037 RMK A01 T10121012  RH  100%=      5-min Rain = 0
KMD1 141241Z 12006KT M01/M01 A3037 RMK A01 T10111011  RH  100%=      5-min Rain = 0
KMD1 141242Z 12009KT M01/M01 A3037 RMK A01 T10111011  RH  100%=      5-min Rain = 0
KMD1 141243Z 11008KT M01/M01 A3037 RMK A01 T10111011  RH  100%=      5-min Rain = 0
KMD1 141244Z 11008KT M01/M01 A3037 RMK A01 T10111011  RH  100%=      5-min Rain = 0
KMD1 141245Z 12007KT M01/M01 A3037 RMK A01 T10111011  RH  100%=      5-min Rain = 0
KMD1 141246Z 12006KT M01/M01 A3037 RMK A01 T10101011  RH  100%=      5-min Rain = 0
KMD1 141247Z 11006KT M01/M01 A3037 RMK A01 T10101011  RH  100%=      5-min Rain = 0
KMD1 141248Z 11006KT M01/M01 A3037 RMK A01 T10101010  RH  100%=      5-min Rain = 0
KMD1 141249Z 13008KT M01/M01 A3037 RMK A01 T10101010  RH  100%=      5-min Rain = 0
KMD1 141250Z 14008KT M01/M01 A3037 RMK A01 T10101010  RH  100%=      5-min Rain = 0
KMD1 141251Z 14008KT M01/M01 A3037 RMK A01 T10101010  RH  100%=      5-min Rain = 0
KMD1 141252Z 11005KT M01/M01 A3037 RMK A01 T10101010  RH  100%=      5-min Rain = 0
KMD1 141253Z 13006KT M01/M01 A3037 RMK A01 T10101010  RH  100%=      5-min Rain = 0
KMD1 141254Z 12006KT M01/M01 A3037 RMK A01 T10101011  RH  100%=      5-min Rain = 0
KMD1 141255Z 13007KT M01/M01 A3037 RMK A01 T10101011  RH  100%=      5-min Rain = 0
KMD1 141256Z 11007KT M01/M01 A3037 RMK A01 T10101011  RH  099%=      5-min Rain = 0
KMD1 141257Z 11007KT M01/M01 A3037 RMK A01 T10101011  RH  099%=      5-min Rain = 0
KMD1 141258Z 11007KT M01/M01 A3037 RMK A01 T10101011  RH  099%=      5-min Rain = 0
KMD1 141259Z 11006KT M01/M01 A3037 RMK A01 T10101011  RH  099%=      5-min Rain = 0
KMD1 141300Z 11007KT M01/M01 A3037 RMK A01 T10101012  RH  099%=      5-min Rain = 0
KMD1 141301Z 12005KT M01/M01 A3037 RMK A01 T10101011  RH  099%=      5-min Rain = 0
KMD1 141302Z 12006KT M01/M01 A3037 RMK A01 T10101011  RH  099%=      5-min Rain = 0
KMD1 141303Z 12006KT M01/M01 A3037 RMK A01 T10091011  RH  099%=      5-min Rain = 0
KMD1 141304Z 13007KT M01/M01 A3037 RMK A01 T10091012  RH  098%=      5-min Rain = 0
KMD1 141305Z 13007KT M01/M01 A3037 RMK A01 T10091012  RH  098%=      5-min Rain = 0
KMD1 141306Z 13006KT M01/M01 A3037 RMK A01 T10091012  RH  098%=      5-min Rain = 0
KMD1 141307Z 12005KT M01/M01 A3037 RMK A01 T10091012  RH  098%=      5-min Rain = 0
KMD1 141308Z 12006KT M01/M01 A3037 RMK A01 T10091012  RH  098%=      5-min Rain = 0
KMD1 141309Z 13006KT M01/M01 A3037 RMK A01 T10091012  RH  098%=      5-min Rain = 0
KMD1 141310Z 12004KT M01/M01 A3037 RMK A01 T10091013  RH  098%=      5-min Rain = 0
KMD1 141311Z 12004KT M01/M01 A3037 RMK A01 T10091012  RH  098%=      5-min Rain = 0
KMD1 141312Z 11006KT M01/M01 A3037 RMK A01 T10101013  RH  098%=      5-min Rain = 0
KMD1 141313Z 12005KT M01/M01 A3037 RMK A01 T10101013  RH  098%=      5-min Rain = 0
KMD1 141314Z 12006KT M01/M01 A3037 RMK A01 T10101013  RH  098%=      5-min Rain = 0
KMD1 141315Z 12006KT M01/M01 A3037 RMK A01 T10101014  RH  097%=      5-min Rain = 0
KMD1 141316Z 12007KT M01/M01 A3037 RMK A01 T10101014  RH  097%=      5-min Rain = 0
KMD1 141317Z 13007KT M01/M01 A3037 RMK A01 T10101014  RH  097%=      5-min Rain = 0
KMD1 141318Z 13007KT M01/M01 A3037 RMK A01 T10101014  RH  097%=      5-min Rain = 0
KMD1 141319Z 13005KT M01/M01 A3037 RMK A01 T10101014  RH  097%=      5-min Rain = 0
KMD1 141320Z 13006KT M01/M01 A3037 RMK A01 T10101014  RH  097%=      5-min Rain = 0
KMD1 141321Z 13007KT M01/M01 A3037 RMK A01 T10101014  RH  097%=      5-min Rain = 0
KMD1 141322Z 13007KT M01/M01 A3037 RMK A01 T10101014  RH  097%=      5-min Rain = 0
KMD1 141323Z 12006KT M01/M01 A3037 RMK A01 T10101014  RH  097%=      5-min Rain = 0
KMD1 141324Z 12005KT M01/M01 A3037 RMK A01 T10101014  RH  097%=      5-min Rain = 0
KMD1 141325Z 12006KT M01/M01 A3037 RMK A01 T10101014  RH  097%=      5-min Rain = 0
KMD1 141326Z 11006KT M01/M01 A3037 RMK A01 T10101014  RH  097%=      5-min Rain = 0
KMD1 141327Z 12007KT M01/M01 A3037 RMK A01 T10101014  RH  097%=      5-min Rain = 0
KMD1 141328Z 10006KT M01/M01 A3037 RMK A01 T10101014  RH  097%=      5-min Rain = 0
KMD1 141329Z 11007KT M01/M01 A3037 RMK A01 T10101014  RH  097%=      5-min Rain = 0
KMD1 141330Z 12005KT M01/M01 A3037 RMK A01 T10101014  RH  097%=      5-min Rain = 0
KMD1 141331Z 10005KT M01/M01 A3037 RMK A01 T10101014  RH  097%=      5-min Rain = 0
KMD1 141332Z 12005KT M01/M01 A3037 RMK A01 T10101014  RH  097%=      5-min Rain = 0
KMD1 141333Z 11006KT M01/M01 A3037 RMK A01 T10101014  RH  097%=      5-min Rain = 0
KMD1 141334Z 12007KT M01/M01 A3037 RMK A01 T10101014  RH  097%=      5-min Rain = 0
KMD1 141335Z 12008KT M01/M01 A3037 RMK A01 T10101014  RH  097%=      5-min Rain = 0
KMD1 141336Z 12005KT M01/M01 A3037 RMK A01 T10101014  RH  097%=      5-min Rain = 0
KMD1 141337Z 13007KT M01/M01 A3038 RMK A01 T10101014  RH  097%=      5-min Rain = 0
KMD1 141338Z 12006KT M01/M01 A3038 RMK A01 T10101014  RH  097%=      5-min Rain = 0
KMD1 141339Z 11005KT M01/M01 A3038 RMK A01 T10101014  RH  097%=      5-min Rain = 0
KMD1 141340Z 10004KT M01/M01 A3038 RMK A01 T10101014  RH  097%=      5-min Rain = 0
KMD1 141341Z 09003KT M01/M01 A3038 RMK A01 T10101014  RH  097%=      5-min Rain = 0
KMD1 141342Z 10004KT M01/M01 A3038 RMK A01 T10101014  RH  097%=      5-min Rain = 0
KMD1 141343Z 10004KT M01/M01 A3038 RMK A01 T10101013  RH  097%=      5-min Rain = 0
KMD1 141344Z 10004KT M01/M01 A3037 RMK A01 T10101013  RH  097%=      5-min Rain = 0
KMD1 141345Z 10003KT M01/M01 A3037 RMK A01 T10101013  RH  098%=      5-min Rain = 0
KMD1 141346Z 10003KT M01/M01 A3037 RMK A01 T10101013  RH  098%=      5-min Rain = 0
KMD1 141347Z 10004KT M01/M01 A3038 RMK A01 T10101013  RH  098%=      5-min Rain = 0
KMD1 141348Z 10003KT M01/M01 A3038 RMK A01 T10101013  RH  098%=      5-min Rain = 0
KMD1 141349Z 10003KT M01/M01 A3038 RMK A01 T10101013  RH  098%=      5-min Rain = 0
KMD1 141350Z 10003KT M01/M01 A3038 RMK A01 T10101013  RH  098%=      5-min Rain = 0
KMD1 141351Z 11004KT M01/M01 A3038 RMK A01 T10101013  RH  098%=      5-min Rain = 0
KMD1 141352Z 11005KT M01/M01 A3038 RMK A01 T10101013  RH  098%=      5-min Rain = 0
KMD1 141353Z 11005KT M01/M01 A3038 RMK A01 T10101013  RH  098%=      5-min Rain = 0
KMD1 141354Z 11005KT M01/M01 A3038 RMK A01 T10101013  RH  098%=      5-min Rain = 0
KMD1 141355Z 11004KT M01/M01 A3038 RMK A01 T10101013  RH  098%=      5-min Rain = 0
KMD1 141356Z 11005KT M01/M01 A3038 RMK A01 T10091013  RH  098%=      5-min Rain = 0
KMD1 141357Z 12005KT M01/M01 A3038 RMK A01 T10091013  RH  098%=      5-min Rain = 0
KMD1 141358Z 10005KT M01/M01 A3038 RMK A01 T10091013  RH  098%=      5-min Rain = 0
KMD1 141359Z 09004KT M01/M01 A3038 RMK A01 T10091012  RH  097%=      5-min Rain = 0
KMD1 141400Z 10004KT M01/M01 A3038 RMK A01 T10091013  RH  097%=      5-min Rain = 0
KMD1 141401Z 12005KT M01/M01 A3038 RMK A01 T10091013  RH  097%=      5-min Rain = 0
KMD1 141402Z 10004KT M01/M01 A3038 RMK A01 T10081013  RH  097%=      5-min Rain = 0
KMD1 141403Z 09004KT M01/M01 A3038 RMK A01 T10081013  RH  097%=      5-min Rain = 0
KMD1 141404Z 10005KT M01/M01 A3038 RMK A01 T10081013  RH  097%=      5-min Rain = 0
KMD1 141405Z 10005KT M01/M01 A3038 RMK A01 T10081013  RH  097%=      5-min Rain = 0
KMD1 141406Z 11004KT M01/M01 A3039 RMK A01 T10081013  RH  097%=      5-min Rain = 0
KMD1 141407Z 11004KT M01/M01 A3039 RMK A01 T10071012  RH  097%=      5-min Rain = 0
KMD1 141408Z 11004KT M01/M01 A3039 RMK A01 T10061011  RH  097%=      5-min Rain = 0
KMD1 141409Z 11004KT M01/M01 A3039 RMK A01 T10061011  RH  097%=      5-min Rain = 0
KMD1 141410Z 12004KT M01/M01 A3039 RMK A01 T10051010  RH  096%=      5-min Rain = 0
KMD1 141411Z 10004KT M01/M01 A3039 RMK A01 T10051010  RH  096%=      5-min Rain = 0
KMD1 141412Z 10003KT M01/M01 A3039 RMK A01 T10051010  RH  096%=      5-min Rain = 0
KMD1 141413Z 12004KT M01/M01 A3039 RMK A01 T10051010  RH  096%=      5-min Rain = 0
KMD1 141414Z 11005KT M01/M01 A3039 RMK A01 T10051011  RH  096%=      5-min Rain = 0
KMD1 141415Z 11005KT M00/M01 A3039 RMK A01 T10041011  RH  096%=      5-min Rain = 0
KMD1 141416Z 10005KT M00/M01 A3039 RMK A01 T10041010  RH  096%=      5-min Rain = 0
KMD1 141417Z 11005KT M00/M01 A3039 RMK A01 T10041010  RH  096%=      5-min Rain = 0
KMD1 141418Z 10005KT M00/M01 A3039 RMK A01 T10041010  RH  095%=      5-min Rain = 0
KMD1 141419Z 10006KT M00/M01 A3039 RMK A01 T10041011  RH  095%=      5-min Rain = 0
KMD1 141420Z 11005KT M01/M01 A3039 RMK A01 T10051011  RH  095%=      5-min Rain = 0
KMD1 141421Z 09004KT M01/M01 A3039 RMK A01 T10051011  RH  095%=      5-min Rain = 0
KMD1 141422Z 10005KT M01/M01 A3039 RMK A01 T10051011  RH  096%=      5-min Rain = 0
KMD1 141423Z 08005KT M01/M01 A3039 RMK A01 T10051011  RH  096%=      5-min Rain = 0
KMD1 141424Z 10005KT M00/M01 A3039 RMK A01 T10041010  RH  096%=      5-min Rain = 0
KMD1 141425Z 11006KT M00/M01 A3039 RMK A01 T10041010  RH  096%=      5-min Rain = 0
KMD1 141426Z 12006KT M00/M01 A3039 RMK A01 T10041010  RH  095%=      5-min Rain = 0
KMD1 141427Z 10006KT M00/M01 A3039 RMK A01 T10041010  RH  095%=      5-min Rain = 0
KMD1 141428Z 11006KT M00/M01 A3039 RMK A01 T10041011  RH  095%=      5-min Rain = 0
KMD1 141429Z 11006KT M00/M01 A3039 RMK A01 T10041011  RH  095%=      5-min Rain = 0
KMD1 141430Z 10005KT M00/M01 A3039 RMK A01 T10041011  RH  095%=      5-min Rain = 0
KMD1 141431Z 10007KT M00/M01 A3039 RMK A01 T10031010  RH  095%=      5-min Rain = 0
KMD1 141432Z 10006KT M00/M01 A3039 RMK A01 T10031010  RH  095%=      5-min Rain = 0
KMD1 141433Z 12007KT M00/M01 A3039 RMK A01 T10031010  RH  095%=      5-min Rain = 0
KMD1 141434Z 11006KT M00/M01 A3039 RMK A01 T10031010  RH  095%=      5-min Rain = 0
KMD1 141435Z 11006KT M00/M01 A3039 RMK A01 T10031010  RH  095%=      5-min Rain = 0
KMD1 141436Z 11007KT M00/M01 A3039 RMK A01 T10031010  RH  095%=      5-min Rain = 0
KMD1 141437Z 09006KT M00/M01 A3039 RMK A01 T10031011  RH  095%=      5-min Rain = 0
KMD1 141438Z 09005KT M00/M01 A3039 RMK A01 T10031010  RH  095%=      5-min Rain = 0
KMD1 141439Z 09005KT M00/M01 A3039 RMK A01 T10021009  RH  096%=      5-min Rain = 0
KMD1 141440Z 10006KT M00/M01 A3039 RMK A01 T10021009  RH  096%=      5-min Rain = 0
KMD1 141441Z 10007KT M00/M01 A3039 RMK A01 T10021009  RH  095%=      5-min Rain = 0
KMD1 141442Z 10007KT M00/M01 A3039 RMK A01 T10021009  RH  095%=      5-min Rain = 0
KMD1 141443Z 10007KT M00/M01 A3039 RMK A01 T10021009  RH  095%=      5-min Rain = 0
KMD1 141444Z 11005KT M00/M01 A3039 RMK A01 T10021009  RH  095%=      5-min Rain = 0
KMD1 141445Z 11006KT M00/M01 A3039 RMK A01 T10021009  RH  095%=      5-min Rain = 0
KMD1 141446Z 12007KT M00/M01 A3039 RMK A01 T10021010  RH  094%=      5-min Rain = 0
KMD1 141447Z 11006KT M00/M01 A3039 RMK A01 T10021010  RH  095%=      5-min Rain = 0
KMD1 141448Z 11007KT M00/M01 A3039 RMK A01 T10021011  RH  094%=      5-min Rain = 0
KMD1 141449Z 11007KT M00/M01 A3039 RMK A01 T10031011  RH  094%=      5-min Rain = 0
KMD1 141450Z 10008KT M00/M01 A3039 RMK A01 T10031011  RH  094%=      5-min Rain = 0
KMD1 141451Z 12008KT M00/M01 A3039 RMK A01 T10031011  RH  094%=      5-min Rain = 0
KMD1 141452Z 13009KT M00/M01 A3039 RMK A01 T10021009  RH  095%=      5-min Rain = 0
KMD1 141453Z 13009KT M00/M01 A3039 RMK A01 T10011009  RH  095%=      5-min Rain = 0
KMD1 141454Z 13009KT 00/01 A3039 RMK A01 T00-000-8  RH  094%=      5-min Rain = 0
KMD1 141455Z 13008KT 00/01 A3039 RMK A01 T000000-9  RH  093%=      5-min Rain = 0
KMD1 141456Z 12009KT 00/M01 A3039 RMK A01 T00011009  RH  093%=      5-min Rain = 0
KMD1 141457Z 11006KT 00/01 A304 RMK A01 T00000-10  RH  092%=      5-min Rain = 0
KMD1 141458Z 12009KT 00/M01 A304 RMK A01 T00021007  RH  094%=      5-min Rain = 0
KMD1 141459Z 13008KT 00/M01 A3039 RMK A01 T00031006  RH  093%=      5-min Rain = 0
KMD1 141500Z 12010KT 00/M01 A304 RMK A01 T00041007  RH  092%=      5-min Rain = 0
KMD1 141501Z 12008KT 00/M01 A304 RMK A01 T00031009  RH  091%=      5-min Rain = 0
KMD1 141502Z 12008KT 00/M01 A304 RMK A01 T00041008  RH  092%=      5-min Rain = 0
KMD1 141503Z 12009KT 01/M01 A304 RMK A01 T00051006  RH  092%=      5-min Rain = 0
KMD1 141504Z 12008KT 01/M01 A304 RMK A01 T00061007  RH  091%=      5-min Rain = 0
KMD1 141505Z 11007KT 00/M01 A304 RMK A01 T00041010  RH  090%=      5-min Rain = 0
KMD1 141506Z 10006KT 00/M01 A304 RMK A01 T00041010  RH  090%=      5-min Rain = 0
KMD1 141507Z 11005KT 00/M01 A304 RMK A01 T00031011  RH  090%=      5-min Rain = 0
KMD1 141508Z 12004KT 00/M01 A304 RMK A01 T00021012  RH  090%=      5-min Rain = 0
KMD1 141509Z 13006KT 00/M01 A304 RMK A01 T00031009  RH  092%=      5-min Rain = 0
KMD1 141510Z 12006KT 00/M01 A304 RMK A01 T00031010  RH  091%=      5-min Rain = 0
KMD1 141511Z 13007KT 00/M01 A304 RMK A01 T00031010  RH  091%=      5-min Rain = 0
KMD1 141512Z 14006KT 00/M01 A304 RMK A01 T00041008  RH  091%=      5-min Rain = 0
KMD1 141513Z 14006KT 01/M01 A304 RMK A01 T00051008  RH  091%=      5-min Rain = 0
KMD1 141514Z 13006KT 01/M01 A304 RMK A01 T00061008  RH  091%=      5-min Rain = 0
KMD1 141515Z 11005KT 01/M01 A304 RMK A01 T00071006  RH  091%=      5-min Rain = 0
KMD1 141516Z 11006KT 01/M01 A304 RMK A01 T00081006  RH  090%=      5-min Rain = 0
KMD1 141517Z 11006KT 01/M00 A304 RMK A01 T00091004  RH  091%=      5-min Rain = 0
KMD1 141518Z 11006KT 01/M01 A304 RMK A01 T00101006  RH  089%=      5-min Rain = 0
KMD1 141519Z 12006KT 01/M01 A3039 RMK A01 T00081009  RH  088%=      5-min Rain = 0
KMD1 141520Z 13007KT 01/M01 A3039 RMK A01 T00091006  RH  089%=      5-min Rain = 0
KMD1 141521Z 14006KT 01/M01 A3039 RMK A01 T00091008  RH  089%=      5-min Rain = 0
KMD1 141522Z 13005KT 01/M01 A3039 RMK A01 T00101008  RH  088%=      5-min Rain = 0
KMD1 141523Z 13004KT 01/M01 A3039 RMK A01 T00101008  RH  088%=      5-min Rain = 0
KMD1 141524Z 13004KT 01/M01 A3039 RMK A01 T00101007  RH  088%=      5-min Rain = 0
KMD1 141525Z 12005KT 01/M01 A3039 RMK A01 T00121006  RH  088%=      5-min Rain = 0
KMD1 141526Z 12004KT 01/M01 A3039 RMK A01 T00121009  RH  086%=      5-min Rain = 0
KMD1 141527Z 11006KT 01/M01 A304 RMK A01 T00121007  RH  087%=      5-min Rain = 0
KMD1 141528Z 13006KT 01/M01 A3039 RMK A01 T00131006  RH  087%=      5-min Rain = 0
KMD1 141529Z 11006KT 01/M01 A3039 RMK A01 T00141007  RH  086%=      5-min Rain = 0
KMD1 141530Z 11007KT 01/M01 A3039 RMK A01 T00141005  RH  087%=      5-min Rain = 0
KMD1 141531Z 11007KT 02/M01 A3039 RMK A01 T00151006  RH  086%=      5-min Rain = 0
KMD1 141532Z 13006KT 02/M01 A3039 RMK A01 T00151006  RH  086%=      5-min Rain = 0
KMD1 141533Z 13005KT 02/M00 A3039 RMK A01 T00171002  RH  087%=      5-min Rain = 0
KMD1 141534Z 13004KT 02/M01 A3039 RMK A01 T00181005  RH  085%=      5-min Rain = 0
KMD1 141535Z 13006KT 02/M01 A3039 RMK A01 T00181005  RH  085%=      5-min Rain = 0
KMD1 141536Z 12004KT 02/M01 A3039 RMK A01 T00181006  RH  084%=      5-min Rain = 0
KMD1 141537Z 12004KT 02/M01 A3039 RMK A01 T00181006  RH  084%=      5-min Rain = 0
KMD1 141538Z 12006KT 02/M01 A3039 RMK A01 T00181005  RH  085%=      5-min Rain = 0
KMD1 141539Z 13005KT 02/M00 A3039 RMK A01 T00191004  RH  085%=      5-min Rain = 0
KMD1 141540Z 13006KT 02/M00 A3039 RMK A01 T00201004  RH  084%=      5-min Rain = 0
KMD1 141541Z 13006KT 02/M00 A3039 RMK A01 T00221003  RH  083%=      5-min Rain = 0
KMD1 141542Z 12006KT 02/M01 A3039 RMK A01 T00221006  RH  082%=      5-min Rain = 0
KMD1 141543Z 12007KT 02/M00 A3039 RMK A01 T00221004  RH  083%=      5-min Rain = 0
KMD1 141544Z 11005KT 02/M01 A3039 RMK A01 T00221007  RH  081%=      5-min Rain = 0
KMD1 141545Z 11006KT 02/M01 A3039 RMK A01 T00221005  RH  082%=      5-min Rain = 0
KMD1 141546Z 11006KT 02/M00 A3039 RMK A01 T00231004  RH  082%=      5-min Rain = 0
KMD1 141547Z 12006KT 03/M00 A3039 RMK A01 T00251002  RH  083%=      5-min Rain = 0
KMD1 141548Z 11005KT 03/M00 A3039 RMK A01 T00261004  RH  081%=      5-min Rain = 0
KMD1 141549Z 12007KT 03/M00 A3039 RMK A01 T00251004  RH  081%=      5-min Rain = 0
KMD1 141550Z 13006KT 03/M01 A3039 RMK A01 T00251008  RH  079%=      5-min Rain = 0
KMD1 141551Z 13006KT 03/M01 A3039 RMK A01 T00251005  RH  081%=      5-min Rain = 0
KMD1 141552Z 13006KT 03/M00 A3039 RMK A01 T00271003  RH  081%=      5-min Rain = 0
KMD1 141553Z 13006KT 03/M00 A3039 RMK A01 T00281001  RH  081%=      5-min Rain = 0
KMD1 141554Z 11004KT 03/M00 A3039 RMK A01 T00301002  RH  080%=      5-min Rain = 0
KMD1 141555Z 11006KT 03/M00 A3039 RMK A01 T00301002  RH  079%=      5-min Rain = 0
KMD1 141556Z 11005KT 03/M01 A3039 RMK A01 T00291007  RH  077%=      5-min Rain = 0
KMD1 141557Z 13006KT 03/M01 A3039 RMK A01 T00281006  RH  078%=      5-min Rain = 0
KMD1 141558Z 13003KT 03/M01 A3039 RMK A01 T00281006  RH  078%=      5-min Rain = 0
KMD1 141559Z 10005KT 03/M01 A3039 RMK A01 T00281005  RH  079%=      5-min Rain = 0
KMD1 141600Z 10006KT 03/M00 A3039 RMK A01 T00291004  RH  079%=      5-min Rain = 0
KMD1 141601Z 11005KT 03/M01 A3039 RMK A01 T00291005  RH  078%=      5-min Rain = 0
KMD1 141602Z 13005KT 03/M01 A3039 RMK A01 T00291005  RH  078%=      5-min Rain = 0
KMD1 141603Z 12005KT 03/M01 A3039 RMK A01 T00301005  RH  078%=      5-min Rain = 0
KMD1 141604Z 12004KT 03/M01 A3039 RMK A01 T00291006  RH  077%=      5-min Rain = 0
KMD1 141605Z 12005KT 03/00 A3039 RMK A01 T00310000  RH  080%=      5-min Rain = 0
KMD1 141606Z 11006KT 04/00 A3039 RMK A01 T00350002  RH  079%=      5-min Rain = 0
KMD1 141607Z 10006KT 04/M00 A3039 RMK A01 T00351003  RH  076%=      5-min Rain = 0
KMD1 141608Z 11007KT 04/00 A3039 RMK A01 T003600-0  RH  077%=      5-min Rain = 0
KMD1 141609Z 10007KT 04/M00 A3039 RMK A01 T00371002  RH  076%=      5-min Rain = 0
KMD1 141610Z 10006KT 04/M01 A3039 RMK A01 T00351006  RH  075%=      5-min Rain = 0
KMD1 141611Z 10006KT 04/M00 A3039 RMK A01 T00351002  RH  077%=      5-min Rain = 0
KMD1 141612Z 11006KT 04/M00 A3039 RMK A01 T00371001  RH  076%=      5-min Rain = 0
KMD1 141613Z 12006KT 04/M00 A3039 RMK A01 T00391004  RH  074%=      5-min Rain = 0
KMD1 141614Z 12006KT 04/00 A3039 RMK A01 T00400002  RH  076%=      5-min Rain = 0
KMD1 141615Z 12006KT 04/00 A3039 RMK A01 T004300-0  RH  074%=      5-min Rain = 0
KMD1 141616Z 12006KT 04/M00 A3039 RMK A01 T00421003  RH  073%=      5-min Rain = 0
KMD1 141617Z 13004KT 04/M00 A3039 RMK A01 T00411004  RH  073%=      5-min Rain = 0
KMD1 141618Z 13003KT 04/M00 A3039 RMK A01 T00401004  RH  073%=      5-min Rain = 0
KMD1 141619Z 10004KT 04/00 A3039 RMK A01 T004100-0  RH  074%=      5-min Rain = 0
KMD1 141620Z 12004KT 04/00 A3039 RMK A01 T00430002  RH  075%=      5-min Rain = 0
KMD1 141621Z 10005KT 05/00 A3039 RMK A01 T00460002  RH  073%=      5-min Rain = 0
KMD1 141622Z 11006KT 05/M00 A304 RMK A01 T00461002  RH  071%=      5-min Rain = 0
KMD1 141623Z 11006KT 05/M00 A304 RMK A01 T00451001  RH  072%=      5-min Rain = 0
KMD1 141624Z 14005KT 05/00 A304 RMK A01 T00460000  RH  072%=      5-min Rain = 0
KMD1 141625Z 13007KT 05/00 A3039 RMK A01 T00480002  RH  072%=      5-min Rain = 0
KMD1 141626Z 15006KT 05/M00 A3039 RMK A01 T00481002  RH  070%=      5-min Rain = 0
KMD1 141627Z 14007KT 05/M01 A3039 RMK A01 T00481005  RH  069%=      5-min Rain = 0
KMD1 141628Z 14006KT 05/M00 A3039 RMK A01 T00481003  RH  069%=      5-min Rain = 0
KMD1 141629Z 14006KT 05/M00 A3039 RMK A01 T00491001  RH  070%=      5-min Rain = 0
KMD1 141630Z 14005KT 05/M00 A3039 RMK A01 T00501002  RH  069%=      5-min Rain = 0
KMD1 141631Z 18005KT 05/M00 A3039 RMK A01 T00501002  RH  069%=      5-min Rain = 0
KMD1 141632Z 14005KT 05/M00 A3039 RMK A01 T00491004  RH  069%=      5-min Rain = 0
KMD1 141633Z 12006KT 05/00 A3039 RMK A01 T00500000  RH  070%=      5-min Rain = 0
KMD1 141634Z 11006KT 05/M00 A3039 RMK A01 T00511003  RH  068%=      5-min Rain = 0
KMD1 141635Z 11005KT 05/00 A3039 RMK A01 T005200-0  RH  069%=      5-min Rain = 0
KMD1 141636Z 13005KT 05/M00 A3039 RMK A01 T00541002  RH  068%=      5-min Rain = 0
KMD1 141637Z 12008KT 06/00 A3039 RMK A01 T00550001  RH  068%=      5-min Rain = 0
KMD1 141638Z 11007KT 06/M00 A304 RMK A01 T00561001  RH  067%=      5-min Rain = 0
KMD1 141639Z 10006KT 05/M00 A304 RMK A01 T00541004  RH  066%=      5-min Rain = 0
KMD1 141640Z 12007KT 05/M00 A3039 RMK A01 T00531002  RH  068%=      5-min Rain = 0
KMD1 141641Z 11006KT 06/M00 A3039 RMK A01 T00551001  RH  068%=      5-min Rain = 0
KMD1 141642Z 12007KT 06/00 A3039 RMK A01 T00560001  RH  067%=      5-min Rain = 0
KMD1 141643Z 13007KT 06/00 A3039 RMK A01 T00590000  RH  066%=      5-min Rain = 0
KMD1 141644Z 11008KT 06/M00 A3039 RMK A01 T00581001  RH  066%=      5-min Rain = 0
KMD1 141645Z 10008KT 06/M00 A3039 RMK A01 T00561004  RH  065%=      5-min Rain = 0
KMD1 141646Z 10007KT 06/M01 A3039 RMK A01 T00561005  RH  065%=      5-min Rain = 0
KMD1 141647Z 10007KT 06/M01 A3039 RMK A01 T00551007  RH  064%=      5-min Rain = 0
KMD1 141648Z 11009KT 06/M00 A3039 RMK A01 T00561003  RH  066%=      5-min Rain = 0
KMD1 141649Z 12007KT 06/M01 A3039 RMK A01 T00571006  RH  064%=      5-min Rain = 0
KMD1 141650Z 11009KT 06/M00 A3039 RMK A01 T00611002  RH  064%=      5-min Rain = 0
KMD1 141651Z 10008KT 06/M01 A3039 RMK A01 T00611009  RH  061%=      5-min Rain = 0
KMD1 141652Z 09006KT 06/M01 A3039 RMK A01 T00581010  RH  061%=      5-min Rain = 0
KMD1 141653Z 10007KT 06/M01 A3039 RMK A01 T00581007  RH  063%=      5-min Rain = 0
KMD1 141654Z 12007KT 06/M00 A3039 RMK A01 T00601003  RH  064%=      5-min Rain = 0
KMD1 141655Z 11009KT 06/M00 A3039 RMK A01 T00631002  RH  063%=      5-min Rain = 0
KMD1 141656Z 12008KT 06/M01 A3039 RMK A01 T00611007  RH  062%=      5-min Rain = 0
KMD1 141657Z 12007KT 06/M01 A3039 RMK A01 T00581007  RH  063%=      5-min Rain = 0
KMD1 141658Z 11008KT 06/M00 A3039 RMK A01 T00591002  RH  065%=      5-min Rain = 0
KMD1 141659Z 12006KT 06/M01 A3039 RMK A01 T00601005  RH  063%=      5-min Rain = 0
KMD1 141700Z 11005KT 06/M01 A3039 RMK A01 T00591008  RH  062%=      5-min Rain = 0
KMD1 141701Z 11008KT 06/M01 A3039 RMK A01 T00591008  RH  062%=      5-min Rain = 0
KMD1 141702Z 11008KT 06/M01 A3039 RMK A01 T00601006  RH  063%=      5-min Rain = 0
KMD1 141703Z 12007KT 06/M00 A3039 RMK A01 T00611004  RH  063%=      5-min Rain = 0
KMD1 141704Z 13006KT 06/M00 A3039 RMK A01 T00621004  RH  063%=      5-min Rain = 0
KMD1 141705Z 13006KT 06/M01 A3039 RMK A01 T00621006  RH  062%=      5-min Rain = 0
KMD1 141706Z 15006KT 06/M00 A3039 RMK A01 T00621003  RH  063%=      5-min Rain = 0
KMD1 141707Z 14005KT 06/00 A3039 RMK A01 T00640001  RH  064%=      5-min Rain = 0
KMD1 141708Z 13005KT 07/00 A3039 RMK A01 T00680003  RH  063%=      5-min Rain = 0
KMD1 141709Z 12006KT 07/M00 A3038 RMK A01 T00691001  RH  061%=      5-min Rain = 0
KMD1 141710Z 12007KT 07/M01 A3038 RMK A01 T00681005  RH  059%=      5-min Rain = 0
KMD1 141711Z 14009KT 07/M00 A3038 RMK A01 T00681003  RH  061%=      5-min Rain = 0
KMD1 141712Z 14008KT 07/M00 A3038 RMK A01 T00681003  RH  060%=      5-min Rain = 0
KMD1 141713Z 13006KT 07/M00 A3038 RMK A01 T00671004  RH  060%=      5-min Rain = 0
KMD1 141714Z 13007KT 07/M01 A3038 RMK A01 T00661005  RH  060%=      5-min Rain = 0
KMD1 141715Z 14008KT 07/M01 A3038 RMK A01 T00661005  RH  061%=      5-min Rain = 0
KMD1 141716Z 16006KT 07/M00 A3038 RMK A01 T00671004  RH  061%=      5-min Rain = 0
KMD1 141717Z 16003KT 07/M01 A3038 RMK A01 T00671006  RH  060%=      5-min Rain = 0
KMD1 141718Z 16003KT 07/M01 A3038 RMK A01 T00661005  RH  060%=      5-min Rain = 0
KMD1 141719Z 16003KT 07/M00 A3038 RMK A01 T00671002  RH  061%=      5-min Rain = 0
KMD1 141720Z 14005KT 07/M00 A3038 RMK A01 T00701002  RH  060%=      5-min Rain = 0
KMD1 141721Z 14005KT 07/00 A3038 RMK A01 T00710000  RH  061%=      5-min Rain = 0
KMD1 141722Z 12008KT 08/01 A3038 RMK A01 T00750008  RH  063%=      5-min Rain = 0
KMD1 141723Z 12006KT 08/00 A3038 RMK A01 T00770003  RH  059%=      5-min Rain = 0
KMD1 141724Z 12005KT 08/M00 A3038 RMK A01 T00771001  RH  058%=      5-min Rain = 0
KMD1 141725Z 13004KT 08/M00 A3038 RMK A01 T00751002  RH  058%=      5-min Rain = 0
KMD1 141726Z 09004KT 07/M00 A3038 RMK A01 T00741001  RH  059%=      5-min Rain = 0
KMD1 141727Z 11005KT 07/00 A3038 RMK A01 T007300-0  RH  060%=      5-min Rain = 0
KMD1 141728Z 10003KT 07/00 A3038 RMK A01 T007100-0  RH  060%=      5-min Rain = 0
KMD1 141729Z 12006KT 07/01 A3038 RMK A01 T00740006  RH  062%=      5-min Rain = 0
KMD1 141730Z 12005KT 08/01 A3038 RMK A01 T00790008  RH  061%=      5-min Rain = 0
KMD1 141731Z 11004KT 08/M00 A3038 RMK A01 T00801001  RH  057%=      5-min Rain = 0
KMD1 141732Z 13005KT 08/00 A3038 RMK A01 T00780004  RH  059%=      5-min Rain = 0
KMD1 141733Z 11003KT 08/00 A3038 RMK A01 T00790002  RH  058%=      5-min Rain = 0
KMD1 141734Z 10006KT 08/01 A3038 RMK A01 T00800005  RH  059%=      5-min Rain = 0
KMD1 141735Z 13003KT 08/00 A3038 RMK A01 T00810002  RH  057%=      5-min Rain = 0
KMD1 141736Z 12005KT 08/01 A3038 RMK A01 T00820007  RH  059%=      5-min Rain = 0
KMD1 141737Z 11006KT 08/00 A3038 RMK A01 T00840001  RH  056%=      5-min Rain = 0
KMD1 141738Z 11006KT 08/M00 A3037 RMK A01 T00821002  RH  055%=      5-min Rain = 0
KMD1 141739Z 11007KT 08/M00 A3037 RMK A01 T00811002  RH  056%=      5-min Rain = 0
KMD1 141740Z 12007KT 08/M00 A3037 RMK A01 T00781003  RH  056%=      5-min Rain = 0
KMD1 141741Z 13007KT 08/00 A3037 RMK A01 T00780001  RH  058%=      5-min Rain = 0
KMD1 141742Z 11006KT 08/00 A3037 RMK A01 T00800000  RH  057%=      5-min Rain = 0
KMD1 141743Z 11004KT 08/00 A3037 RMK A01 T008100-0  RH  057%=      5-min Rain = 0
KMD1 141744Z 14002KT 08/M00 A3037 RMK A01 T00811003  RH  055%=      5-min Rain = 0
KMD1 141745Z 14002KT 08/M00 A3037 RMK A01 T00811004  RH  055%=      5-min Rain = 0
KMD1 141746Z 13003KT 08/M00 A3037 RMK A01 T00821002  RH  055%=      5-min Rain = 0
KMD1 141747Z 12006KT 08/00 A3037 RMK A01 T00840000  RH  055%=      5-min Rain = 0
KMD1 141748Z 13005KT 09/00 A3037 RMK A01 T00870001  RH  055%=      5-min Rain = 0
KMD1 141749Z 17005KT 09/00 A3037 RMK A01 T00900002  RH  054%=      5-min Rain = 0
KMD1 141750Z 17004KT 09/M00 A3037 RMK A01 T00901004  RH  052%=      5-min Rain = 0
KMD1 141751Z 15004KT 09/M00 A3037 RMK A01 T00901002  RH  052%=      5-min Rain = 0
KMD1 141752Z 10007KT 09/00 A3037 RMK A01 T00920000  RH  053%=      5-min Rain = 0
KMD1 141753Z 11006KT 09/01 A3037 RMK A01 T00930005  RH  054%=      5-min Rain = 0
KMD1 141754Z 13005KT 09/M01 A3037 RMK A01 T00921005  RH  051%=      5-min Rain = 0
KMD1 141755Z 11007KT 09/M00 A3037 RMK A01 T00891001  RH  053%=      5-min Rain = 0
KMD1 141756Z 13009KT 09/M00 A3037 RMK A01 T00901001  RH  053%=      5-min Rain = 0
KMD1 141757Z 13007KT 09/M01 A3037 RMK A01 T00901010  RH  050%=      5-min Rain = 0
KMD1 141758Z 14006KT 09/M01 A3037 RMK A01 T00881011  RH  050%=      5-min Rain = 0
KMD1 141759Z 14005KT 09/M01 A3037 RMK A01 T00881012  RH  050%=      5-min Rain = 0
KMD1 141800Z 14006KT 09/M01 A3037 RMK A01 T00891005  RH  052%=      5-min Rain = 0
KMD1 141801Z 15008KT 09/M01 A3037 RMK A01 T00911006  RH  051%=      5-min Rain = 0
KMD1 141802Z 14011KT 09/00 A3037 RMK A01 T00920002  RH  053%=      5-min Rain = 0
KMD1 141803Z 14007KT 09/M00 A3037 RMK A01 T00931004  RH  051%=      5-min Rain = 0
KMD1 141804Z 13005KT 09/M01 A3037 RMK A01 T00921005  RH  050%=      5-min Rain = 0
KMD1 141805Z 10005KT 09/M00 A3036 RMK A01 T00921003  RH  051%=      5-min Rain = 0
KMD1 141806Z 11002KT 09/M01 A3036 RMK A01 T00931008  RH  049%=      5-min Rain = 0
KMD1 141807Z 17003KT 09/M00 A3036 RMK A01 T00931004  RH  051%=      5-min Rain = 0
KMD1 141808Z 15006G11KT 09/M00 A3036 RMK A01 T00941004  RH  050%=      5-min Rain = 0
KMD1 141809Z 13009KT 10/M01 A3036 RMK A01 T00951006  RH  049%=      5-min Rain = 0
KMD1 141810Z 14007KT 10/M00 A3036 RMK A01 T00961002  RH  050%=      5-min Rain = 0
KMD1 141811Z 14008KT 10/00 A3036 RMK A01 T00990004  RH  052%=      5-min Rain = 0
KMD1 141812Z 16006KT 10/M00 A3036 RMK A01 T01001004  RH  048%=      5-min Rain = 0
KMD1 141813Z 18006KT 10/M00 A3036 RMK A01 T00981004  RH  049%=      5-min Rain = 0
KMD1 141814Z 19004KT 10/M01 A3036 RMK A01 T00971006  RH  048%=      5-min Rain = 0
KMD1 141815Z 20003KT 10/M01 A3036 RMK A01 T00961009  RH  048%=      5-min Rain = 0
KMD1 141816Z 16004KT 10/M01 A3036 RMK A01 T00961006  RH  049%=      5-min Rain = 0
KMD1 141817Z 15007KT 10/M00 A3036 RMK A01 T00971002  RH  050%=      5-min Rain = 0
KMD1 141818Z 15008KT 10/M00 A3035 RMK A01 T00991004  RH  049%=      5-min Rain = 0
KMD1 141819Z 14008KT 10/M01 A3035 RMK A01 T00991005  RH  048%=      5-min Rain = 0
KMD1 141820Z 13008KT 10/M00 A3035 RMK A01 T01001001  RH  049%=      5-min Rain = 0
KMD1 141821Z 11006KT 10/00 A3035 RMK A01 T01020002  RH  050%=      5-min Rain = 0
KMD1 141822Z 12008KT 10/00 A3035 RMK A01 T01030001  RH  049%=      5-min Rain = 0
KMD1 141823Z 11005KT 10/M00 A3035 RMK A01 T01031004  RH  048%=      5-min Rain = 0
KMD1 141824Z 16010KT 10/00 A3035 RMK A01 T01010001  RH  050%=      5-min Rain = 0
KMD1 141825Z 17008KT 10/M01 A3035 RMK A01 T01001006  RH  048%=      5-min Rain = 0
KMD1 141826Z 16008KT 10/M00 A3035 RMK A01 T01001004  RH  048%=      5-min Rain = 0
KMD1 141827Z 17008KT 10/M00 A3035 RMK A01 T01041004  RH  047%=      5-min Rain = 0
KMD1 141828Z 19007KT 10/M01 A3035 RMK A01 T01031008  RH  046%=      5-min Rain = 0
KMD1 141829Z 17006KT 10/M01 A3035 RMK A01 T01011009  RH  047%=      5-min Rain = 0
KMD1 141830Z 15007KT 10/00 A3035 RMK A01 T01020001  RH  049%=      5-min Rain = 0
KMD1 141831Z 14005KT 10/M00 A3035 RMK A01 T01041003  RH  048%=      5-min Rain = 0
KMD1 141832Z 15008KT 10/M00 A3034 RMK A01 T01041004  RH  047%=      5-min Rain = 0
KMD1 141833Z 15009KT 11/00 A3034 RMK A01 T01060000  RH  048%=      5-min Rain = 0
KMD1 141834Z 15008KT 11/M00 A3034 RMK A01 T01081004  RH  046%=      5-min Rain = 0
KMD1 141835Z 14008KT 11/M01 A3034 RMK A01 T01051007  RH  046%=      5-min Rain = 0
KMD1 141836Z 14008KT 11/M01 A3034 RMK A01 T01051008  RH  045%=      5-min Rain = 0
KMD1 141837Z 14008KT 11/M02 A3034 RMK A01 T01051016  RH  043%=      5-min Rain = 0
KMD1 141838Z 14011KT 11/M01 A3034 RMK A01 T01051011  RH  044%=      5-min Rain = 0
KMD1 141839Z 15008KT 11/M01 A3034 RMK A01 T01071014  RH  043%=      5-min Rain = 0
KMD1 141840Z 16007KT 11/M01 A3034 RMK A01 T01051014  RH  043%=      5-min Rain = 0
KMD1 141841Z 14010KT 11/M01 A3034 RMK A01 T01061007  RH  045%=      5-min Rain = 0
KMD1 141842Z 14009KT 11/M01 A3034 RMK A01 T01071009  RH  044%=      5-min Rain = 0
KMD1 141843Z 15009KT 11/M01 A3034 RMK A01 T01081009  RH  044%=      5-min Rain = 0
KMD1 141844Z 15011KT 11/M01 A3034 RMK A01 T01081014  RH  043%=      5-min Rain = 0
KMD1 141845Z 14009KT 11/M01 A3034 RMK A01 T01071012  RH  044%=      5-min Rain = 0
KMD1 141846Z 17009KT 11/M01 A3033 RMK A01 T01091010  RH  044%=      5-min Rain = 0
KMD1 141847Z 17010KT 11/M01 A3033 RMK A01 T01091012  RH  043%=      5-min Rain = 0
KMD1 141848Z 18008KT 11/M01 A3033 RMK A01 T01081010  RH  044%=      5-min Rain = 0
KMD1 141849Z 19006KT 11/M01 A3033 RMK A01 T01081009  RH  044%=      5-min Rain = 0
KMD1 141850Z 15007KT 11/M01 A3033 RMK A01 T01091007  RH  045%=      5-min Rain = 0
KMD1 141851Z 15009KT 11/M00 A3033 RMK A01 T01111004  RH  045%=      5-min Rain = 0
KMD1 141852Z 14008KT 11/M01 A3033 RMK A01 T01111008  RH  044%=      5-min Rain = 0
KMD1 141853Z 15008KT 11/M01 A3033 RMK A01 T01111008  RH  044%=      5-min Rain = 0
KMD1 141854Z 14012KT 11/M01 A3033 RMK A01 T01111009  RH  043%=      5-min Rain = 0
KMD1 141855Z 15011KT 11/M01 A3033 RMK A01 T01131009  RH  043%=      5-min Rain = 0
KMD1 141856Z 16009KT 11/M01 A3033 RMK A01 T01141006  RH  043%=      5-min Rain = 0
KMD1 141857Z 18009KT 12/M01 A3032 RMK A01 T01151006  RH  043%=      5-min Rain = 0
KMD1 141858Z 16010KT 12/M01 A3032 RMK A01 T01151008  RH  043%=      5-min Rain = 0
KMD1 141859Z 14010G15KT 12/M01 A3032 RMK A01 T01151008  RH  043%=      5-min Rain = 0
KMD1 141900Z 13010KT 11/M01 A3032 RMK A01 T01141005  RH  044%=      5-min Rain = 0
KMD1 141901Z 13006KT 11/M01 A3032 RMK A01 T01141010  RH  042%=      5-min Rain = 0
KMD1 141902Z 16008KT 11/M01 A3032 RMK A01 T01111012  RH  043%=      5-min Rain = 0
KMD1 141903Z 16005KT 11/M01 A3032 RMK A01 T01111011  RH  043%=      5-min Rain = 0
KMD1 141904Z 17005KT 11/M01 A3032 RMK A01 T01111007  RH  044%=      5-min Rain = 0
KMD1 141905Z 16008KT 11/M01 A3032 RMK A01 T01131006  RH  044%=      5-min Rain = 0
KMD1 141906Z 16010KT 12/M00 A3032 RMK A01 T01151002  RH  044%=      5-min Rain = 0
KMD1 141907Z 18010KT 12/M01 A3032 RMK A01 T01171006  RH  043%=      5-min Rain = 0
KMD1 141908Z 18010KT 12/M01 A3032 RMK A01 T01171009  RH  042%=      5-min Rain = 0
KMD1 141909Z 20010KT 12/M01 A3032 RMK A01 T01171010  RH  041%=      5-min Rain = 0
KMD1 141910Z 19011KT 12/M00 A3031 RMK A01 T01171004  RH  043%=      5-min Rain = 0
KMD1 141911Z 18008KT 12/00 A3031 RMK A01 T011900-0  RH  044%=      5-min Rain = 0
KMD1 141912Z 15010KT 12/00 A3031 RMK A01 T01210004  RH  045%=      5-min Rain = 0
KMD1 141913Z 15010KT 12/01 A3031 RMK A01 T01210006  RH  045%=      5-min Rain = 0
KMD1 141914Z 14009KT 12/00 A3031 RMK A01 T012000-0  RH  044%=      5-min Rain = 0
KMD1 141915Z 13008KT 12/00 A3031 RMK A01 T011800-0  RH  044%=      5-min Rain = 0
KMD1 141916Z 14010KT 12/M00 A3031 RMK A01 T01181002  RH  044%=      5-min Rain = 0
KMD1 141917Z 14010KT 12/M00 A3031 RMK A01 T01161004  RH  043%=      5-min Rain = 0
KMD1 141918Z 15010KT 12/00 A3031 RMK A01 T01170002  RH  045%=      5-min Rain = 0
KMD1 141919Z 14009KT 12/00 A3031 RMK A01 T01190003  RH  045%=      5-min Rain = 0
KMD1 141920Z 14008KT 12/00 A3031 RMK A01 T01210001  RH  044%=      5-min Rain = 0
KMD1 141921Z 17008KT 12/M00 A3031 RMK A01 T01211001  RH  043%=      5-min Rain = 0
KMD1 141922Z 16010KT 12/M00 A3031 RMK A01 T01211002  RH  043%=      5-min Rain = 0
KMD1 141923Z 18008KT 12/00 A3031 RMK A01 T01230004  RH  044%=      5-min Rain = 0
KMD1 141924Z 20009KT 13/00 A303 RMK A01 T01250003  RH  043%=      5-min Rain = 0
KMD1 141925Z 20009KT 12/M00 A303 RMK A01 T01241003  RH  042%=      5-min Rain = 0
KMD1 141926Z 18007KT 12/M00 A303 RMK A01 T01201003  RH  043%=      5-min Rain = 0
KMD1 141927Z 17012KT 12/00 A303 RMK A01 T01220001  RH  044%=      5-min Rain = 0
KMD1 141928Z 16012KT 12/M00 A303 RMK A01 T01221003  RH  042%=      5-min Rain = 0
KMD1 141929Z 14013KT 12/00 A303 RMK A01 T012100-0  RH  043%=      5-min Rain = 0
KMD1 141930Z 15010KT 12/M00 A303 RMK A01 T01221002  RH  043%=      5-min Rain = 0
KMD1 141931Z 14009KT 12/00 A303 RMK A01 T01220002  RH  044%=      5-min Rain = 0
KMD1 141932Z 15009KT 13/01 A303 RMK A01 T01250005  RH  044%=      5-min Rain = 0
KMD1 141933Z 15011KT 13/00 A303 RMK A01 T01260003  RH  043%=      5-min Rain = 0
KMD1 141934Z 15009KT 13/00 A303 RMK A01 T01260002  RH  043%=      5-min Rain = 0
KMD1 141935Z 17007KT 12/M00 A303 RMK A01 T01241003  RH  042%=      5-min Rain = 0
KMD1 141936Z 16007KT 12/M00 A303 RMK A01 T01221002  RH  042%=      5-min Rain = 0
KMD1 141937Z 15009KT 12/01 A303 RMK A01 T01240005  RH  044%=      5-min Rain = 0
KMD1 141938Z 15010G15KT 12/M00 A303 RMK A01 T01241004  RH  041%=      5-min Rain = 0
KMD1 141939Z 15013KT 12/00 A303 RMK A01 T01230000  RH  043%=      5-min Rain = 0
KMD1 141940Z 13011KT 12/M00 A303 RMK A01 T01231002  RH  042%=      5-min Rain = 0
KMD1 141941Z 14012KT 12/M00 A303 RMK A01 T01241001  RH  042%=      5-min Rain = 0
KMD1 141942Z 15010G15KT 12/M01 A303 RMK A01 T01241005  RH  041%=      5-min Rain = 0
KMD1 141943Z 15008KT 12/M00 A303 RMK A01 T01231003  RH  042%=      5-min Rain = 0
KMD1 141944Z 14011KT 13/00 A3029 RMK A01 T01250003  RH  043%=      5-min Rain = 0
KMD1 141945Z 14011KT 13/M00 A3029 RMK A01 T01261001  RH  042%=      5-min Rain = 0
KMD1 141946Z 15010KT 13/00 A3029 RMK A01 T01250002  RH  043%=      5-min Rain = 0
KMD1 141947Z 16009KT 13/01 A3029 RMK A01 T01260006  RH  044%=      5-min Rain = 0
KMD1 141948Z 13010KT 13/01 A3029 RMK A01 T01290008  RH  043%=      5-min Rain = 0
KMD1 141949Z 15009KT 13/M00 A3029 RMK A01 T01291001  RH  041%=      5-min Rain = 0
KMD1 141950Z 15008KT 13/M00 A3029 RMK A01 T01261002  RH  041%=      5-min Rain = 0
KMD1 141951Z 16007KT 13/00 A3029 RMK A01 T01260003  RH  043%=      5-min Rain = 0
KMD1 141952Z 14010KT 13/00 A3029 RMK A01 T01270002  RH  042%=      5-min Rain = 0
KMD1 141953Z 15010KT 13/M00 A3029 RMK A01 T01271001  RH  041%=      5-min Rain = 0
KMD1 141954Z 17009KT 13/00 A3029 RMK A01 T01260000  RH  042%=      5-min Rain = 0
KMD1 141955Z 17006KT 13/M00 A3029 RMK A01 T01251002  RH  042%=      5-min Rain = 0
KMD1 141956Z 14006KT 13/01 A3029 RMK A01 T01250005  RH  044%=      5-min Rain = 0
KMD1 141957Z 14011KT 13/01 A3029 RMK A01 T01290009  RH  044%=      5-min Rain = 0
KMD1 141958Z 15012KT 13/00 A3028 RMK A01 T01310004  RH  042%=      5-min Rain = 0
KMD1 141959Z 13008KT 13/00 A3029 RMK A01 T01290003  RH  042%=      5-min Rain = 0
KMD1 142000Z 16008KT 13/01 A3028 RMK A01 T01290005  RH  043%=      5-min Rain = 0
KMD1 142001Z 15011KT 13/01 A3028 RMK A01 T01300006  RH  043%=      5-min Rain = 0
KMD1 142002Z 14010KT 13/01 A3028 RMK A01 T01310006  RH  042%=      5-min Rain = 0
KMD1 142003Z 14011KT 13/01 A3028 RMK A01 T01320007  RH  042%=      5-min Rain = 0
KMD1 142004Z 15010KT 13/01 A3028 RMK A01 T01330007  RH  042%=      5-min Rain = 0
KMD1 142005Z 14011KT 13/01 A3028 RMK A01 T01330006  RH  042%=      5-min Rain = 0
KMD1 142006Z 14010KT 13/00 A3028 RMK A01 T01330004  RH  041%=      5-min Rain = 0
KMD1 142007Z 13009KT 13/01 A3028 RMK A01 T01320005  RH  042%=      5-min Rain = 0
KMD1 142008Z 13011KT 13/01 A3028 RMK A01 T01340005  RH  041%=      5-min Rain = 0
KMD1 142009Z 19010KT 13/01 A3028 RMK A01 T01330005  RH  041%=      5-min Rain = 0
KMD1 142010Z 19008KT 13/00 A3028 RMK A01 T01340002  RH  041%=      5-min Rain = 0
KMD1 142011Z 17008KT 13/00 A3028 RMK A01 T01330004  RH  041%=      5-min Rain = 0
KMD1 142012Z 20008KT 14/01 A3028 RMK A01 T01350007  RH  042%=      5-min Rain = 0
KMD1 142013Z 18005KT 14/01 A3028 RMK A01 T01350005  RH  041%=      5-min Rain = 0
KMD1 142014Z 20004KT 14/01 A3028 RMK A01 T01360005  RH  041%=      5-min Rain = 0
KMD1 142015Z 18007KT 14/01 A3028 RMK A01 T01370009  RH  042%=      5-min Rain = 0
KMD1 142016Z 17010KT 14/01 A3028 RMK A01 T01380005  RH  040%=      5-min Rain = 0
KMD1 142017Z 15009KT 14/00 A3028 RMK A01 T01370004  RH  040%=      5-min Rain = 0
KMD1 142018Z 12009KT 14/00 A3028 RMK A01 T01360000  RH  039%=      5-min Rain = 0
KMD1 142019Z 15010KT 14/01 A3027 RMK A01 T01350005  RH  041%=      5-min Rain = 0
KMD1 142020Z 14012KT 14/01 A3027 RMK A01 T01370006  RH  041%=      5-min Rain = 0
KMD1 142021Z 15011KT 14/00 A3027 RMK A01 T01380004  RH  040%=      5-min Rain = 0
KMD1 142022Z 15010KT 14/00 A3027 RMK A01 T01370003  RH  040%=      5-min Rain = 0
KMD1 142023Z 17007KT 14/00 A3027 RMK A01 T01370002  RH  040%=      5-min Rain = 0
KMD1 142024Z 18008KT 14/01 A3027 RMK A01 T01370007  RH  041%=      5-min Rain = 0
KMD1 142025Z 19012KT 14/01 A3027 RMK A01 T01400005  RH  040%=      5-min Rain = 0
KMD1 142026Z 18009KT 14/00 A3027 RMK A01 T01390001  RH  039%=      5-min Rain = 0
KMD1 142027Z 17008KT 14/00 A3027 RMK A01 T013700-0  RH  039%=      5-min Rain = 0
KMD1 142028Z 18005KT 14/00 A3027 RMK A01 T013600-0  RH  039%=      5-min Rain = 0
KMD1 142029Z 18007KT 14/00 A3027 RMK A01 T01360001  RH  040%=      5-min Rain = 0
KMD1 142030Z 16009KT 14/01 A3027 RMK A01 T01380008  RH  041%=      5-min Rain = 0
KMD1 142031Z 18008KT 14/00 A3027 RMK A01 T01400004  RH  039%=      5-min Rain = 0
KMD1 142032Z 15007KT 14/00 A3027 RMK A01 T01400003  RH  039%=      5-min Rain = 0
KMD1 142033Z 14006KT 14/M00 A3027 RMK A01 T01391002  RH  038%=      5-min Rain = 0
KMD1 142034Z 14011KT 14/00 A3027 RMK A01 T01380001  RH  039%=      5-min Rain = 0
KMD1 142035Z 15010KT 14/00 A3027 RMK A01 T01380001  RH  039%=      5-min Rain = 0
KMD1 142036Z 13011KT 14/00 A3027 RMK A01 T01380004  RH  040%=      5-min Rain = 0
KMD1 142037Z 13011KT 14/00 A3027 RMK A01 T01390002  RH  039%=      5-min Rain = 0
KMD1 142038Z 12007KT 14/00 A3027 RMK A01 T01390002  RH  039%=      5-min Rain = 0
KMD1 142039Z 12007KT 14/00 A3027 RMK A01 T01400003  RH  039%=      5-min Rain = 0
KMD1 142040Z 12008G13KT 14/00 A3027 RMK A01 T01400002  RH  039%=      5-min Rain = 0
KMD1 142041Z 14012KT 14/01 A3027 RMK A01 T01430013  RH  041%=      5-min Rain = 0
KMD1 142042Z 17012G17KT 15/01 A3027 RMK A01 T01460011  RH  040%=      5-min Rain = 0
KMD1 142043Z 15013KT 15/01 A3027 RMK A01 T01470009  RH  039%=      5-min Rain = 0
KMD1 142044Z 16012KT 15/01 A3027 RMK A01 T01450005  RH  038%=      5-min Rain = 0
KMD1 142045Z 18009KT 14/00 A3027 RMK A01 T01410002  RH  038%=      5-min Rain = 0
KMD1 142046Z 20008KT 14/00 A3027 RMK A01 T01400002  RH  039%=      5-min Rain = 0
KMD1 142047Z 17010KT 14/00 A3027 RMK A01 T01390001  RH  039%=      5-min Rain = 0
KMD1 142048Z 14013KT 14/00 A3027 RMK A01 T01390003  RH  039%=      5-min Rain = 0
KMD1 142049Z 16010KT 14/01 A3027 RMK A01 T01400007  RH  040%=      5-min Rain = 0
KMD1 142050Z 17011KT 14/01 A3026 RMK A01 T01420006  RH  039%=      5-min Rain = 0
KMD1 142051Z 17010KT 14/01 A3026 RMK A01 T01420008  RH  040%=      5-min Rain = 0
KMD1 142052Z 16009KT 14/01 A3026 RMK A01 T01420006  RH  039%=      5-min Rain = 0
KMD1 142053Z 15010KT 14/01 A3026 RMK A01 T01420008  RH  040%=      5-min Rain = 0
KMD1 142054Z 12009KT 14/00 A3026 RMK A01 T01420004  RH  039%=      5-min Rain = 0
KMD1 142055Z 13008KT 14/01 A3026 RMK A01 T01400005  RH  040%=      5-min Rain = 0
KMD1 142056Z 14005KT 14/01 A3026 RMK A01 T01410005  RH  039%=      5-min Rain = 0
KMD1 142057Z 16007KT 14/01 A3026 RMK A01 T01430010  RH  040%=      5-min Rain = 0
KMD1 142058Z 15008KT 14/01 A3026 RMK A01 T01440006  RH  039%=      5-min Rain = 0
KMD1 142059Z 14009KT 15/01 A3026 RMK A01 T01460011  RH  040%=      5-min Rain = 0
KMD1 142100Z 16009KT 15/00 A3026 RMK A01 T01460002  RH  037%=      5-min Rain = 0
KMD1 142101Z 13008KT 14/00 A3026 RMK A01 T01430001  RH  038%=      5-min Rain = 0
KMD1 142102Z 14008KT 14/00 A3026 RMK A01 T01420003  RH  038%=      5-min Rain = 0
KMD1 142103Z 15009KT 14/00 A3026 RMK A01 T01440002  RH  038%=      5-min Rain = 0
KMD1 142104Z 16010KT 14/00 A3026 RMK A01 T01440003  RH  038%=      5-min Rain = 0
KMD1 142105Z 17006KT 15/01 A3026 RMK A01 T01460010  RH  039%=      5-min Rain = 0
KMD1 142106Z 18009KT 15/00 A3026 RMK A01 T01480002  RH  037%=      5-min Rain = 0
KMD1 142107Z 16010KT 15/00 A3026 RMK A01 T01460002  RH  037%=      5-min Rain = 0
KMD1 142108Z 14011KT 15/00 A3026 RMK A01 T01460004  RH  038%=      5-min Rain = 0
KMD1 142109Z 16010KT 15/00 A3026 RMK A01 T01460003  RH  038%=      5-min Rain = 0
KMD1 142110Z 17009KT 15/01 A3026 RMK A01 T01470008  RH  039%=      5-min Rain = 0
KMD1 142111Z 17006KT 15/00 A3026 RMK A01 T01480002  RH  037%=      5-min Rain = 0
KMD1 142112Z 14005KT 15/00 A3026 RMK A01 T01470004  RH  038%=      5-min Rain = 0
KMD1 142113Z 14006KT 15/01 A3026 RMK A01 T01470006  RH  038%=      5-min Rain = 0
KMD1 142114Z 17015KT 15/01 A3025 RMK A01 T01510010  RH  038%=      5-min Rain = 0
KMD1 142115Z 17013KT 15/00 A3026 RMK A01 T014900-0  RH  036%=      5-min Rain = 0
KMD1 142116Z 14012KT 15/00 A3026 RMK A01 T01470003  RH  037%=      5-min Rain = 0
KMD1 142117Z 15011KT 15/00 A3026 RMK A01 T01460003  RH  038%=      5-min Rain = 0
KMD1 142118Z 15011KT 15/01 A3026 RMK A01 T01470005  RH  038%=      5-min Rain = 0
KMD1 142119Z 16009KT 15/00 A3026 RMK A01 T01480003  RH  037%=      5-min Rain = 0
KMD1 142120Z 17008KT 15/00 A3026 RMK A01 T01480003  RH  037%=      5-min Rain = 0
KMD1 142121Z 16006KT 15/M00 A3025 RMK A01 T01471002  RH  036%=      5-min Rain = 0
KMD1 142122Z 14004KT 15/M00 A3025 RMK A01 T01451004  RH  036%=      5-min Rain = 0
KMD1 142123Z 15009KT 15/01 A3025 RMK A01 T01460009  RH  039%=      5-min Rain = 0
KMD1 142124Z 17008KT 15/01 A3025 RMK A01 T01500007  RH  038%=      5-min Rain = 0
KMD1 142125Z 18008KT 15/00 A3025 RMK A01 T01510003  RH  036%=      5-min Rain = 0
KMD1 142126Z 19010KT 15/01 A3025 RMK A01 T01490005  RH  037%=      5-min Rain = 0
KMD1 142127Z 17011KT 15/01 A3025 RMK A01 T01500006  RH  038%=      5-min Rain = 0
KMD1 142128Z 16008KT 15/00 A3025 RMK A01 T01490003  RH  037%=      5-min Rain = 0
KMD1 142129Z 14006KT 15/M00 A3025 RMK A01 T01481001  RH  036%=      5-min Rain = 0
KMD1 142130Z 16007KT 15/01 A3025 RMK A01 T01470008  RH  039%=      5-min Rain = 0
KMD1 142131Z 13008KT 15/01 A3025 RMK A01 T01510013  RH  039%=      5-min Rain = 0
KMD1 142132Z 13012KT 15/01 A3025 RMK A01 T01540011  RH  038%=      5-min Rain = 0
KMD1 142133Z 14009KT 15/00 A3025 RMK A01 T01530004  RH  036%=      5-min Rain = 0
KMD1 142134Z 13008KT 15/01 A3025 RMK A01 T01500006  RH  037%=      5-min Rain = 0
KMD1 142135Z 14011KT 15/00 A3025 RMK A01 T01490002  RH  036%=      5-min Rain = 0
KMD1 142136Z 14007KT 15/01 A3025 RMK A01 T01490009  RH  039%=      5-min Rain = 0
KMD1 142137Z 13010KT 15/01 A3025 RMK A01 T01510007  RH  037%=      5-min Rain = 0
KMD1 142138Z 12010KT 15/01 A3025 RMK A01 T01500005  RH  037%=      5-min Rain = 0
KMD1 142139Z 15015KT 15/01 A3025 RMK A01 T01520011  RH  038%=      5-min Rain = 0
KMD1 142140Z 17013KT 15/01 A3025 RMK A01 T01540012  RH  038%=      5-min Rain = 0
KMD1 142141Z 17014KT 15/01 A3024 RMK A01 T01530006  RH  037%=      5-min Rain = 0
KMD1 142142Z 17011KT 15/01 A3025 RMK A01 T01500007  RH  038%=      5-min Rain = 0
KMD1 142143Z 15013KT 15/01 A3025 RMK A01 T01510010  RH  038%=      5-min Rain = 0
KMD1 142144Z 16012KT 15/01 A3025 RMK A01 T01510006  RH  037%=      5-min Rain = 0
KMD1 142145Z 16012KT 15/01 A3025 RMK A01 T01500009  RH  038%=      5-min Rain = 0
KMD1 142146Z 17011KT 15/01 A3025 RMK A01 T01500007  RH  038%=      5-min Rain = 0
KMD1 142147Z 18009KT 15/00 A3025 RMK A01 T01500004  RH  037%=      5-min Rain = 0
KMD1 142148Z 18011KT 15/00 A3025 RMK A01 T01490004  RH  037%=      5-min Rain = 0
KMD1 142149Z 18008KT 15/01 A3024 RMK A01 T01490007  RH  038%=      5-min Rain = 0
KMD1 142150Z 18008KT 15/01 A3024 RMK A01 T01490005  RH  037%=      5-min Rain = 0
KMD1 142151Z 19010KT 15/00 A3024 RMK A01 T01500003  RH  037%=      5-min Rain = 0
KMD1 142152Z 18010KT 15/00 A3024 RMK A01 T01500004  RH  037%=      5-min Rain = 0
KMD1 142153Z 16008KT 15/01 A3024 RMK A01 T01510005  RH  037%=      5-min Rain = 0
KMD1 142154Z 17013KT 15/00 A3024 RMK A01 T01510004  RH  037%=      5-min Rain = 0
KMD1 142155Z 17013KT 15/01 A3024 RMK A01 T01510006  RH  037%=      5-min Rain = 0
KMD1 142156Z 16012KT 15/00 A3024 RMK A01 T01500004  RH  037%=      5-min Rain = 0
KMD1 142157Z 15011KT 15/00 A3024 RMK A01 T01500004  RH  037%=      5-min Rain = 0
KMD1 142158Z 14009KT 15/01 A3024 RMK A01 T01500005  RH  037%=      5-min Rain = 0
KMD1 142159Z 14009KT 15/01 A3024 RMK A01 T01510008  RH  038%=      5-min Rain = 0
KMD1 142200Z 14008KT 15/00 A3024 RMK A01 T01510002  RH  036%=      5-min Rain = 0
KMD1 142201Z 14009KT 15/00 A3024 RMK A01 T01490001  RH  036%=      5-min Rain = 0
KMD1 142202Z 14008KT 15/00 A3024 RMK A01 T01480003  RH  037%=      5-min Rain = 0
KMD1 142203Z 18006KT 15/01 A3024 RMK A01 T01490006  RH  038%=      5-min Rain = 0
KMD1 142204Z 15005KT 15/01 A3024 RMK A01 T01500007  RH  038%=      5-min Rain = 0
KMD1 142205Z 15009KT 15/01 A3024 RMK A01 T01520012  RH  039%=      5-min Rain = 0
KMD1 142206Z 14008KT 15/01 A3024 RMK A01 T01530006  RH  037%=      5-min Rain = 0
KMD1 142207Z 16009KT 15/01 A3024 RMK A01 T01520007  RH  037%=      5-min Rain = 0
KMD1 142208Z 16010KT 15/00 A3024 RMK A01 T01520001  RH  036%=      5-min Rain = 0
KMD1 142209Z 15010KT 15/01 A3024 RMK A01 T01510006  RH  037%=      5-min Rain = 0
KMD1 142210Z 15014KT 15/01 A3024 RMK A01 T01510008  RH  038%=      5-min Rain = 0
KMD1 142211Z 15011KT 15/00 A3024 RMK A01 T01520004  RH  037%=      5-min Rain = 0
KMD1 142212Z 14010KT 15/00 A3024 RMK A01 T01510003  RH  036%=      5-min Rain = 0
KMD1 142213Z 15008KT 15/00 A3024 RMK A01 T01500004  RH  037%=      5-min Rain = 0
KMD1 142214Z 16008KT 15/01 A3024 RMK A01 T01500007  RH  038%=      5-min Rain = 0
KMD1 142215Z 14008KT 15/01 A3024 RMK A01 T01520007  RH  037%=      5-min Rain = 0
KMD1 142216Z 13009KT 15/00 A3024 RMK A01 T01530003  RH  036%=      5-min Rain = 0
KMD1 142217Z 12009KT 15/00 A3024 RMK A01 T01530003  RH  036%=      5-min Rain = 0
KMD1 142218Z 16010KT 15/00 A3024 RMK A01 T015200-0  RH  035%=      5-min Rain = 0
KMD1 142219Z 16009KT 15/00 A3023 RMK A01 T01520002  RH  036%=      5-min Rain = 0
KMD1 142220Z 15010KT 15/01 A3023 RMK A01 T01520005  RH  037%=      5-min Rain = 0
KMD1 142221Z 14011KT 15/01 A3023 RMK A01 T01540006  RH  037%=      5-min Rain = 0
KMD1 142222Z 15013KT 15/00 A3023 RMK A01 T01540002  RH  035%=      5-min Rain = 0
KMD1 142223Z 14012KT 15/M00 A3023 RMK A01 T01521001  RH  035%=      5-min Rain = 0
KMD1 142224Z 15013KT 15/00 A3023 RMK A01 T015100-0  RH  036%=      5-min Rain = 0
KMD1 142225Z 16012KT 15/M00 A3023 RMK A01 T01501002  RH  035%=      5-min Rain = 0
KMD1 142226Z 15008KT 15/00 A3024 RMK A01 T01500003  RH  037%=      5-min Rain = 0
KMD1 142227Z 14009KT 15/00 A3024 RMK A01 T01520004  RH  037%=      5-min Rain = 0
KMD1 142228Z 14010KT 15/00 A3024 RMK A01 T01530002  RH  036%=      5-min Rain = 0
KMD1 142229Z 15011KT 15/00 A3023 RMK A01 T01540001  RH  035%=      5-min Rain = 0
KMD1 142230Z 13012KT 15/00 A3024 RMK A01 T01530002  RH  036%=      5-min Rain = 0
KMD1 142231Z 13012KT 15/M00 A3024 RMK A01 T01521001  RH  035%=      5-min Rain = 0
KMD1 142232Z 13011KT 15/00 A3024 RMK A01 T01510001  RH  036%=      5-min Rain = 0
KMD1 142233Z 14013KT 15/00 A3024 RMK A01 T01520002  RH  036%=      5-min Rain = 0
KMD1 142234Z 14010KT 15/00 A3024 RMK A01 T015200-0  RH  035%=      5-min Rain = 0
KMD1 142235Z 15011KT 15/M00 A3023 RMK A01 T01521002  RH  035%=      5-min Rain = 0
KMD1 142236Z 16010KT 15/M00 A3023 RMK A01 T01511002  RH  035%=      5-min Rain = 0
KMD1 142237Z 15008KT 15/M00 A3023 RMK A01 T01501002  RH  035%=      5-min Rain = 0
KMD1 142238Z 14007KT 15/00 A3023 RMK A01 T01510002  RH  036%=      5-min Rain = 0
KMD1 142239Z 14010G15KT 15/00 A3023 RMK A01 T01520003  RH  036%=      5-min Rain = 0
KMD1 142240Z 14014KT 15/M00 A3023 RMK A01 T01541001  RH  035%=      5-min Rain = 0
KMD1 142241Z 14011KT 15/M01 A3023 RMK A01 T01521006  RH  034%=      5-min Rain = 0
KMD1 142242Z 13008G14KT 15/M00 A3023 RMK A01 T01511004  RH  035%=      5-min Rain = 0
KMD1 142243Z 16011KT 15/00 A3023 RMK A01 T01520004  RH  036%=      5-min Rain = 0
KMD1 142244Z 16013KT 15/M00 A3023 RMK A01 T01531001  RH  035%=      5-min Rain = 0
KMD1 142245Z 15013KT 15/M01 A3023 RMK A01 T01521005  RH  034%=      5-min Rain = 0
KMD1 142246Z 15012KT 15/M01 A3023 RMK A01 T01511005  RH  034%=      5-min Rain = 0
KMD1 142247Z 15014KT 15/M00 A3023 RMK A01 T01501003  RH  035%=      5-min Rain = 0
KMD1 142248Z 14010KT 15/M00 A3023 RMK A01 T01501004  RH  035%=      5-min Rain = 0
KMD1 142249Z 13014KT 15/M00 A3023 RMK A01 T01511001  RH  035%=      5-min Rain = 0
KMD1 142250Z 14011KT 15/M00 A3023 RMK A01 T01511003  RH  035%=      5-min Rain = 0
KMD1 142251Z 14010KT 15/M01 A3023 RMK A01 T01501005  RH  035%=      5-min Rain = 0
KMD1 142252Z 13012KT 15/M00 A3023 RMK A01 T01501001  RH  036%=      5-min Rain = 0
KMD1 142253Z 14011KT 15/M01 A3023 RMK A01 T01511005  RH  034%=      5-min Rain = 0
KMD1 142254Z 14009KT 15/M00 A3023 RMK A01 T01501004  RH  035%=      5-min Rain = 0
KMD1 142255Z 15009KT 15/M00 A3023 RMK A01 T01501003  RH  035%=      5-min Rain = 0
KMD1 142256Z 15007KT 15/M00 A3023 RMK A01 T01501001  RH  035%=      5-min Rain = 0
KMD1 142257Z 14008KT 15/M00 A3023 RMK A01 T01511004  RH  035%=      5-min Rain = 0
KMD1 142258Z 12006KT 15/M00 A3023 RMK A01 T01511004  RH  035%=      5-min Rain = 0
KMD1 142259Z 14006KT 15/00 A3023 RMK A01 T01510000  RH  036%=      5-min Rain = 0
KMD1 142300Z 15010G15KT 15/00 A3023 RMK A01 T01520001  RH  036%=      5-min Rain = 0
KMD1 142301Z 14014KT 15/00 A3023 RMK A01 T015200-0  RH  035%=      5-min Rain = 0
KMD1 142302Z 13012KT 15/M00 A3023 RMK A01 T01511001  RH  035%=      5-min Rain = 0
KMD1 142303Z 14011KT 15/M00 A3023 RMK A01 T01501003  RH  035%=      5-min Rain = 0
KMD1 142304Z 14009KT 15/M00 A3023 RMK A01 T01491003  RH  036%=      5-min Rain = 0
KMD1 142305Z 14010KT 15/M00 A3023 RMK A01 T01481001  RH  036%=      5-min Rain = 0
KMD1 142306Z 15009KT 15/00 A3023 RMK A01 T01480001  RH  037%=      5-min Rain = 0
KMD1 142307Z 13010KT 15/00 A3023 RMK A01 T01480001  RH  036%=      5-min Rain = 0
KMD1 142308Z 14010KT 15/00 A3023 RMK A01 T01490001  RH  036%=      5-min Rain = 0
KMD1 142309Z 13010KT 15/M00 A3023 RMK A01 T01491001  RH  036%=      5-min Rain = 0
KMD1 142310Z 13009KT 15/M01 A3023 RMK A01 T01501005  RH  035%=      5-min Rain = 0
KMD1 142311Z 13011KT 15/00 A3023 RMK A01 T01490001  RH  036%=      5-min Rain = 0
KMD1 142312Z 15011KT 15/01 A3023 RMK A01 T01500006  RH  037%=      5-min Rain = 0
KMD1 142313Z 16009KT 15/00 A3023 RMK A01 T01500001  RH  036%=      5-min Rain = 0
KMD1 142314Z 16008KT 15/M00 A3023 RMK A01 T01501001  RH  036%=      5-min Rain = 0
KMD1 142315Z 14006KT 15/00 A3023 RMK A01 T01490002  RH  036%=      5-min Rain = 0
KMD1 142316Z 14008KT 15/00 A3023 RMK A01 T01500003  RH  037%=      5-min Rain = 0
KMD1 142317Z 14008KT 15/M00 A3023 RMK A01 T01501002  RH  035%=      5-min Rain = 0
KMD1 142318Z 13010KT 15/M00 A3023 RMK A01 T01511001  RH  036%=      5-min Rain = 0
KMD1 142319Z 13011KT 15/M00 A3023 RMK A01 T01501004  RH  035%=      5-min Rain = 0
KMD1 142320Z 14011KT 15/M01 A3023 RMK A01 T01491006  RH  035%=      5-min Rain = 0
KMD1 142321Z 13010KT 15/M00 A3023 RMK A01 T01491003  RH  035%=      5-min Rain = 0
KMD1 142322Z 14009KT 15/M01 A3023 RMK A01 T01481005  RH  035%=      5-min Rain = 0
KMD1 142323Z 14010KT 15/M00 A3023 RMK A01 T01481002  RH  036%=      5-min Rain = 0
KMD1 142324Z 13012KT 15/M00 A3023 RMK A01 T01481002  RH  036%=      5-min Rain = 0
KMD1 142325Z 15010KT 15/M00 A3023 RMK A01 T01481004  RH  035%=      5-min Rain = 0
KMD1 142326Z 17011KT 15/M00 A3023 RMK A01 T01471004  RH  036%=      5-min Rain = 0
KMD1 142327Z 17010KT 15/M00 A3023 RMK A01 T01471004  RH  036%=      5-min Rain = 0
KMD1 142328Z 17009KT 15/M00 A3023 RMK A01 T01461004  RH  036%=      5-min Rain = 0
KMD1 142329Z 16011KT 15/M01 A3023 RMK A01 T01461005  RH  036%=      5-min Rain = 0
KMD1 142330Z 16008KT 15/00 A3023 RMK A01 T01460000  RH  037%=      5-min Rain = 0
KMD1 142331Z 15008KT 15/M00 A3023 RMK A01 T01461001  RH  036%=      5-min Rain = 0
KMD1 142332Z 15007KT 15/M00 A3023 RMK A01 T01461004  RH  036%=      5-min Rain = 0
KMD1 142333Z 14008KT 15/M00 A3023 RMK A01 T01461003  RH  036%=      5-min Rain = 0
KMD1 142334Z 15009KT 15/M00 A3023 RMK A01 T01461004  RH  036%=      5-min Rain = 0
KMD1 142335Z 14008KT 15/M00 A3023 RMK A01 T01461003  RH  036%=      5-min Rain = 0
KMD1 142336Z 15009KT 15/00 A3023 RMK A01 T014500-0  RH  037%=      5-min Rain = 0
KMD1 142337Z 14008KT 15/00 A3023 RMK A01 T01450000  RH  037%=      5-min Rain = 0
KMD1 142338Z 14008KT 14/00 A3023 RMK A01 T014400-0  RH  037%=      5-min Rain = 0
KMD1 142339Z 14011KT 14/M01 A3023 RMK A01 T01441005  RH  036%=      5-min Rain = 0
KMD1 142340Z 14008KT 14/M01 A3023 RMK A01 T01431007  RH  036%=      5-min Rain = 0
KMD1 142341Z 14008KT 14/M00 A3023 RMK A01 T01431002  RH  037%=      5-min Rain = 0
KMD1 142342Z 14008KT 14/M00 A3023 RMK A01 T01431003  RH  037%=      5-min Rain = 0
KMD1 142343Z 14009KT 14/M00 A3023 RMK A01 T01431004  RH  036%=      5-min Rain = 0
KMD1 142344Z 15009KT 14/M00 A3023 RMK A01 T01431004  RH  037%=      5-min Rain = 0
KMD1 142345Z 15010KT 14/M01 A3023 RMK A01 T01431005  RH  036%=      5-min Rain = 0
KMD1 142346Z 14010KT 14/M00 A3023 RMK A01 T01431004  RH  037%=      5-min Rain = 0
KMD1 142347Z 14008KT 14/M01 A3023 RMK A01 T01421005  RH  036%=      5-min Rain = 0
KMD1 142348Z 14007KT 14/M00 A3023 RMK A01 T01421001  RH  037%=      5-min Rain = 0
KMD1 142349Z 14007KT 14/M00 A3023 RMK A01 T01421002  RH  037%=      5-min Rain = 0
KMD1 142350Z 14009KT 14/M01 A3023 RMK A01 T01411005  RH  036%=      5-min Rain = 0
KMD1 142351Z 14010KT 14/M01 A3023 RMK A01 T01411005  RH  037%=      5-min Rain = 0
KMD1 142352Z 14009KT 14/M01 A3023 RMK A01 T01401006  RH  037%=      5-min Rain = 0
KMD1 142353Z 13008KT 14/M00 A3023 RMK A01 T01401002  RH  038%=      5-min Rain = 0
KMD1 142354Z 13010KT 14/M01 A3023 RMK A01 T01391005  RH  037%=      5-min Rain = 0
KMD1 142355Z 14008KT 14/M01 A3023 RMK A01 T01381008  RH  037%=      5-min Rain = 0
KMD1 142356Z 13008KT 14/M01 A3023 RMK A01 T01381006  RH  037%=      5-min Rain = 0
KMD1 142357Z 12010KT 14/M01 A3023 RMK A01 T01371007  RH  037%=      5-min Rain = 0
KMD1 142358Z 13010KT 14/M01 A3023 RMK A01 T01371005  RH  038%=      5-min Rain = 0
KMD1 142359Z 13010KT 14/M01 A3023 RMK A01 T01361005  RH  038%=      5-min Rain = 0
KMD1 150000Z 15008KT 14/M01 A3023 RMK A01 T01361005  RH  038%=      5-min Rain = 0
KMD1 150001Z 15008KT 14/M00 A3023 RMK A01 T01361003  RH  038%=      5-min Rain = 0
KMD1 150002Z 14007KT 14/M00 A3023 RMK A01 T01351004  RH  038%=      5-min Rain = 0
KMD1 150003Z 14010KT 14/M00 A3023 RMK A01 T01351003  RH  039%=      5-min Rain = 0
KMD1 150004Z 13009KT 13/M01 A3023 RMK A01 T01341007  RH  038%=      5-min Rain = 0
KMD1 150005Z 14008KT 13/M01 A3023 RMK A01 T01341005  RH  039%=      5-min Rain = 0
KMD1 150006Z 14008KT 13/M00 A3023 RMK A01 T01331004  RH  039%=      5-min Rain = 0
KMD1 150007Z 14008KT 13/M01 A3023 RMK A01 T01331005  RH  039%=      5-min Rain = 0
KMD1 150008Z 14008KT 13/M00 A3023 RMK A01 T01321004  RH  039%=      5-min Rain = 0
KMD1 150009Z 14009KT 13/M01 A3023 RMK A01 T01321006  RH  039%=      5-min Rain = 0
KMD1 150010Z 14008KT 13/M01 A3023 RMK A01 T01321005  RH  039%=      5-min Rain = 0
KMD1 150011Z 13009KT 13/M01 A3023 RMK A01 T01311006  RH  039%=      5-min Rain = 0
KMD1 150012Z 14009KT 13/M01 A3023 RMK A01 T01311005  RH  039%=      5-min Rain = 0
KMD1 150013Z 13007KT 13/M01 A3023 RMK A01 T01311005  RH  039%=      5-min Rain = 0
KMD1 150014Z 13007KT 13/M00 A3023 RMK A01 T01291003  RH  040%=      5-min Rain = 0
KMD1 150015Z 13008KT 13/M01 A3023 RMK A01 T01281005  RH  040%=      5-min Rain = 0
KMD1 150016Z 13008KT 13/M00 A3023 RMK A01 T01281004  RH  040%=      5-min Rain = 0
KMD1 150017Z 13007KT 13/M00 A3023 RMK A01 T01271003  RH  041%=      5-min Rain = 0
KMD1 150018Z 14007KT 13/M00 A3023 RMK A01 T01251002  RH  041%=      5-min Rain = 0
KMD1 150019Z 14007KT 12/M00 A3023 RMK A01 T01231001  RH  042%=      5-min Rain = 0
KMD1 150020Z 13007KT 12/M00 A3023 RMK A01 T01221002  RH  042%=      5-min Rain = 0
KMD1 150021Z 14006KT 12/M01 A3023 RMK A01 T01221005  RH  042%=      5-min Rain = 0
KMD1 150022Z 13006KT 12/M00 A3023 RMK A01 T01231002  RH  042%=      5-min Rain = 0
KMD1 150023Z 13008KT 12/M00 A3023 RMK A01 T01221003  RH  042%=      5-min Rain = 0
KMD1 150024Z 14009KT 12/M00 A3023 RMK A01 T01221004  RH  042%=      5-min Rain = 0
KMD1 150025Z 14010KT 12/M01 A3023 RMK A01 T01231006  RH  041%=      5-min Rain = 0
KMD1 150026Z 14008KT 12/M01 A3023 RMK A01 T01241006  RH  041%=      5-min Rain = 0
KMD1 150027Z 14009KT 12/M01 A3023 RMK A01 T01241006  RH  041%=      5-min Rain = 0
KMD1 150028Z 14008KT 12/M01 A3023 RMK A01 T01241005  RH  041%=      5-min Rain = 0
KMD1 150029Z 15008KT 12/M00 A3023 RMK A01 T01241004  RH  041%=      5-min Rain = 0
KMD1 150030Z 14007KT 12/M00 A3023 RMK A01 T01241004  RH  041%=      5-min Rain = 0
KMD1 150031Z 14007KT 12/M00 A3023 RMK A01 T01231004  RH  041%=      5-min Rain = 0
KMD1 150032Z 14006KT 12/M00 A3023 RMK A01 T01231004  RH  042%=      5-min Rain = 0
KMD1 150033Z 14007KT 12/M00 A3023 RMK A01 T01211002  RH  043%=      5-min Rain = 0
KMD1 150034Z 14007KT 12/M00 A3023 RMK A01 T01201003  RH  043%=      5-min Rain = 0
KMD1 150035Z 14008KT 12/M00 A3023 RMK A01 T01191004  RH  042%=      5-min Rain = 0
KMD1 150036Z 14008KT 12/M00 A3023 RMK A01 T01191003  RH  043%=      5-min Rain = 0
KMD1 150037Z 14007KT 12/M00 A3023 RMK A01 T01191003  RH  043%=      5-min Rain = 0
KMD1 150038Z 14007KT 12/M00 A3023 RMK A01 T01191003  RH  043%=      5-min Rain = 0
KMD1 150039Z 14008KT 12/M00 A3023 RMK A01 T01181003  RH  043%=      5-min Rain = 0
KMD1 150040Z 14008KT 12/M00 A3023 RMK A01 T01171004  RH  043%=      5-min Rain = 0
KMD1 150041Z 14007KT 12/M01 A3023 RMK A01 T01171005  RH  043%=      5-min Rain = 0
KMD1 150042Z 13007KT 12/M00 A3023 RMK A01 T01181003  RH  043%=      5-min Rain = 0
KMD1 150043Z 13007KT 12/M00 A3023 RMK A01 T01161003  RH  044%=      5-min Rain = 0
KMD1 150044Z 13007KT 12/M00 A3023 RMK A01 T01161003  RH  044%=      5-min Rain = 0
KMD1 150045Z 14006KT 12/M00 A3023 RMK A01 T01151003  RH  044%=      5-min Rain = 0
KMD1 150046Z 13007KT 11/M00 A3023 RMK A01 T01131002  RH  045%=      5-min Rain = 0
KMD1 150047Z 13006KT 11/M00 A3023 RMK A01 T01131002  RH  045%=      5-min Rain = 0
KMD1 150048Z 13007KT 11/M00 A3023 RMK A01 T01111002  RH  046%=      5-min Rain = 0
KMD1 150049Z 13007KT 11/M00 A3023 RMK A01 T01101003  RH  045%=      5-min Rain = 0
KMD1 150050Z 13006KT 11/M00 A3023 RMK A01 T01101002  RH  046%=      5-min Rain = 0
KMD1 150051Z 13006KT 11/M00 A3023 RMK A01 T01091001  RH  047%=      5-min Rain = 0
KMD1 150052Z 13006KT 11/M00 A3023 RMK A01 T01071001  RH  047%=      5-min Rain = 0
KMD1 150053Z 13006KT 11/M00 A3023 RMK A01 T01061001  RH  048%=      5-min Rain = 0
KMD1 150054Z 13007KT 11/M00 A3024 RMK A01 T01051001  RH  048%=      5-min Rain = 0
KMD1 150055Z 13007KT 10/M00 A3024 RMK A01 T01041002  RH  048%=      5-min Rain = 0
KMD1 150056Z 13006KT 10/M00 A3024 RMK A01 T01041002  RH  048%=      5-min Rain = 0
KMD1 150057Z 13006KT 10/M00 A3024 RMK A01 T01041001  RH  048%=      5-min Rain = 0
KMD1 150058Z 13007KT 10/M00 A3024 RMK A01 T01041001  RH  048%=      5-min Rain = 0
KMD1 150059Z 13008KT 10/M00 A3024 RMK A01 T01031003  RH  048%=      5-min Rain = 0
KMD1 150100Z 13007KT 11/M00 A3024 RMK A01 T01051003  RH  047%=      5-min Rain = 0
KMD1 150101Z 13008KT 11/M00 A3024 RMK A01 T01051003  RH  047%=      5-min Rain = 0
KMD1 150102Z 13007KT 11/M00 A3024 RMK A01 T01051002  RH  048%=      5-min Rain = 0
KMD1 150103Z 13007KT 10/M00 A3024 RMK A01 T01041002  RH  048%=      5-min Rain = 0
KMD1 150104Z 13008KT 10/M00 A3024 RMK A01 T01031001  RH  048%=      5-min Rain = 0
KMD1 150105Z 13008KT 10/M00 A3024 RMK A01 T01031003  RH  048%=      5-min Rain = 0
KMD1 150106Z 13008KT 10/M00 A3024 RMK A01 T01041003  RH  048%=      5-min Rain = 0
KMD1 150107Z 13008KT 10/M00 A3024 RMK A01 T01041003  RH  047%=      5-min Rain = 0
KMD1 150108Z 13007KT 11/M00 A3024 RMK A01 T01051003  RH  047%=      5-min Rain = 0
KMD1 150109Z 13008KT 10/M00 A3024 RMK A01 T01041002  RH  048%=      5-min Rain = 0
KMD1 150110Z 14007KT 10/M00 A3024 RMK A01 T01031002  RH  048%=      5-min Rain = 0
KMD1 150111Z 13009KT 10/M00 A3024 RMK A01 T01031004  RH  047%=      5-min Rain = 0
KMD1 150112Z 14007KT 11/M01 A3024 RMK A01 T01051005  RH  047%=      5-min Rain = 0
KMD1 150113Z 13007KT 11/M00 A3024 RMK A01 T01051004  RH  047%=      5-min Rain = 0
KMD1 150114Z 14008KT 11/M00 A3024 RMK A01 T01051004  RH  047%=      5-min Rain = 0
KMD1 150115Z 13009KT 10/M01 A3024 RMK A01 T01041007  RH  046%=      5-min Rain = 0
KMD1 150116Z 14008KT 11/M01 A3024 RMK A01 T01051007  RH  046%=      5-min Rain = 0
KMD1 150117Z 13008KT 11/M01 A3024 RMK A01 T01061006  RH  046%=      5-min Rain = 0
KMD1 150118Z 14007KT 11/M01 A3024 RMK A01 T01061006  RH  046%=      5-min Rain = 0
KMD1 150119Z 14008KT 11/M01 A3024 RMK A01 T01051006  RH  046%=      5-min Rain = 0
KMD1 150120Z 14007KT 11/M01 A3024 RMK A01 T01051006  RH  046%=      5-min Rain = 0
KMD1 150121Z 14008KT 10/M01 A3024 RMK A01 T01041005  RH  047%=      5-min Rain = 0
KMD1 150122Z 14008KT 10/M01 A3024 RMK A01 T01041007  RH  046%=      5-min Rain = 0
KMD1 150123Z 14007KT 10/M01 A3024 RMK A01 T01031006  RH  046%=      5-min Rain = 0
KMD1 150124Z 14008KT 10/M01 A3024 RMK A01 T01031007  RH  046%=      5-min Rain = 0
KMD1 150125Z 14008KT 10/M01 A3024 RMK A01 T01031007  RH  046%=      5-min Rain = 0
KMD1 150126Z 14008KT 10/M01 A3024 RMK A01 T01031008  RH  046%=      5-min Rain = 0
KMD1 150127Z 14009KT 10/M01 A3024 RMK A01 T01031008  RH  046%=      5-min Rain = 0
KMD1 150128Z 14009KT 10/M01 A3024 RMK A01 T01031009  RH  046%=      5-min Rain = 0
KMD1 150129Z 14008KT 10/M01 A3024 RMK A01 T01041010  RH  045%=      5-min Rain = 0
KMD1 150130Z 14009KT 10/M01 A3024 RMK A01 T01041010  RH  045%=      5-min Rain = 0
KMD1 150131Z 14008KT 10/M01 A3025 RMK A01 T01031008  RH  046%=      5-min Rain = 0
KMD1 150132Z 14007KT 10/M01 A3025 RMK A01 T01021008  RH  047%=      5-min Rain = 0
KMD1 150133Z 14008KT 10/M01 A3025 RMK A01 T01011008  RH  047%=      5-min Rain = 0
KMD1 150134Z 14008KT 10/M01 A3025 RMK A01 T01001009  RH  046%=      5-min Rain = 0
KMD1 150135Z 14009KT 10/M01 A3024 RMK A01 T01011010  RH  046%=      5-min Rain = 0
KMD1 150136Z 14007KT 10/M01 A3025 RMK A01 T01011009  RH  046%=      5-min Rain = 0
KMD1 150137Z 14007KT 10/M01 A3025 RMK A01 T01011008  RH  047%=      5-min Rain = 0
KMD1 150138Z 14007KT 10/M01 A3025 RMK A01 T01001009  RH  047%=      5-min Rain = 0
KMD1 150139Z 14008KT 10/M01 A3025 RMK A01 T00991010  RH  046%=      5-min Rain = 0
KMD1 150140Z 14008KT 10/M01 A3025 RMK A01 T00991010  RH  047%=      5-min Rain = 0
KMD1 150141Z 14009KT 10/M01 A3025 RMK A01 T00991011  RH  046%=      5-min Rain = 0
KMD1 150142Z 14009KT 10/M01 A3025 RMK A01 T01001011  RH  046%=      5-min Rain = 0
KMD1 150143Z 14008KT 10/M01 A3025 RMK A01 T01001010  RH  046%=      5-min Rain = 0
KMD1 150144Z 14008KT 10/M01 A3025 RMK A01 T01001010  RH  046%=      5-min Rain = 0
KMD1 150145Z 14007KT 10/M01 A3025 RMK A01 T01001010  RH  046%=      5-min Rain = 0
KMD1 150146Z 14009KT 10/M01 A3025 RMK A01 T00991011  RH  046%=      5-min Rain = 0
KMD1 150147Z 14008KT 10/M01 A3025 RMK A01 T00991010  RH  047%=      5-min Rain = 0
KMD1 150148Z 15008KT 10/M01 A3025 RMK A01 T00981009  RH  047%=      5-min Rain = 0
KMD1 150149Z 15009KT 10/M01 A3025 RMK A01 T00971009  RH  047%=      5-min Rain = 0
KMD1 150150Z 15009KT 10/M01 A3025 RMK A01 T00971011  RH  047%=      5-min Rain = 0
KMD1 150151Z 15008KT 10/M01 A3025 RMK A01 T00971011  RH  047%=      5-min Rain = 0
KMD1 150152Z 15009KT 10/M01 A3025 RMK A01 T00971010  RH  047%=      5-min Rain = 0
KMD1 150153Z 15010KT 10/M01 A3025 RMK A01 T00961011  RH  047%=      5-min Rain = 0
KMD1 150154Z 14009KT 10/M01 A3025 RMK A01 T00971011  RH  047%=      5-min Rain = 0
KMD1 150155Z 15009KT 10/M01 A3025 RMK A01 T00971011  RH  047%=      5-min Rain = 0
KMD1 150156Z 15009KT 10/M01 A3025 RMK A01 T00971011  RH  047%=      5-min Rain = 0
KMD1 150157Z 15008KT 10/M01 A3025 RMK A01 T00971010  RH  047%=      5-min Rain = 0
KMD1 150158Z 15009KT 10/M01 A3025 RMK A01 T00961011  RH  047%=      5-min Rain = 0
KMD1 150159Z 15010KT 10/M01 A3025 RMK A01 T00961011  RH  047%=      5-min Rain = 0
KMD1 150200Z 15008KT 10/M01 A3025 RMK A01 T00961012  RH  047%=      5-min Rain = 0
KMD1 150201Z 15009KT 10/M01 A3025 RMK A01 T00961011  RH  047%=      5-min Rain = 0
KMD1 150202Z 15009KT 10/M01 A3025 RMK A01 T00951011  RH  048%=      5-min Rain = 0
KMD1 150203Z 15010KT 10/M01 A3025 RMK A01 T00951011  RH  048%=      5-min Rain = 0
KMD1 150204Z 15009KT 10/M01 A3025 RMK A01 T00951013  RH  047%=      5-min Rain = 0
KMD1 150205Z 15009KT 10/M01 A3025 RMK A01 T00961012  RH  047%=      5-min Rain = 0
KMD1 150206Z 15009KT 10/M01 A3025 RMK A01 T00951011  RH  047%=      5-min Rain = 0
KMD1 150207Z 15010KT 10/M01 A3025 RMK A01 T00951012  RH  047%=      5-min Rain = 0
KMD1 150208Z 15010KT 10/M01 A3025 RMK A01 T00951013  RH  047%=      5-min Rain = 0
KMD1 150209Z 15011KT 10/M01 A3026 RMK A01 T00951013  RH  047%=      5-min Rain = 0
KMD1 150210Z 15009KT 10/M01 A3026 RMK A01 T00961013  RH  047%=      5-min Rain = 0
KMD1 150211Z 15010KT 10/M01 A3026 RMK A01 T00961012  RH  047%=      5-min Rain = 0
KMD1 150212Z 15009KT 10/M01 A3026 RMK A01 T00951012  RH  047%=      5-min Rain = 0
KMD1 150213Z 15010KT 09/M01 A3026 RMK A01 T00941013  RH  047%=      5-min Rain = 0
KMD1 150214Z 14009KT 09/M01 A3026 RMK A01 T00941013  RH  047%=      5-min Rain = 0
KMD1 150215Z 15009KT 10/M01 A3026 RMK A01 T00951013  RH  047%=      5-min Rain = 0
KMD1 150216Z 15009KT 09/M01 A3026 RMK A01 T00941012  RH  048%=      5-min Rain = 0
KMD1 150217Z 15010KT 09/M01 A3026 RMK A01 T00931013  RH  048%=      5-min Rain = 0
KMD1 150218Z 15010KT 09/M02 A3026 RMK A01 T00931015  RH  047%=      5-min Rain = 0
KMD1 150219Z 15008KT 10/M01 A3026 RMK A01 T00951014  RH  046%=      5-min Rain = 0
KMD1 150220Z 15010KT 10/M01 A3026 RMK A01 T00951014  RH  047%=      5-min Rain = 0
KMD1 150221Z 15009KT 09/M01 A3026 RMK A01 T00941014  RH  047%=      5-min Rain = 0
KMD1 150222Z 15010KT 09/M01 A3026 RMK A01 T00941013  RH  047%=      5-min Rain = 0
KMD1 150223Z 15011KT 09/M02 A3026 RMK A01 T00931015  RH  047%=      5-min Rain = 0
KMD1 150224Z 15011KT 09/M02 A3026 RMK A01 T00941015  RH  046%=      5-min Rain = 0
KMD1 150225Z 15009KT 09/M01 A3026 RMK A01 T00941014  RH  047%=      5-min Rain = 0
KMD1 150226Z 15009KT 09/M01 A3026 RMK A01 T00931014  RH  047%=      5-min Rain = 0
KMD1 150227Z 15011KT 09/M01 A3026 RMK A01 T00931014  RH  047%=      5-min Rain = 0
KMD1 150228Z 15009KT 09/M01 A3026 RMK A01 T00931014  RH  047%=      5-min Rain = 0
KMD1 150229Z 15010KT 09/M01 A3026 RMK A01 T00931014  RH  047%=      5-min Rain = 0
KMD1 150230Z 16010KT 09/M02 A3026 RMK A01 T00931015  RH  047%=      5-min Rain = 0
KMD1 150231Z 15010KT 09/M01 A3026 RMK A01 T00931014  RH  047%=      5-min Rain = 0
KMD1 150232Z 16010KT 09/M01 A3026 RMK A01 T00931014  RH  047%=      5-min Rain = 0
KMD1 150233Z 15009KT 09/M02 A3026 RMK A01 T00931015  RH  047%=      5-min Rain = 0
KMD1 150234Z 15011KT 09/M02 A3026 RMK A01 T00941015  RH  046%=      5-min Rain = 0
KMD1 150235Z 16010KT 09/M02 A3026 RMK A01 T00941015  RH  046%=      5-min Rain = 0
KMD1 150236Z 16011KT 09/M02 A3026 RMK A01 T00941015  RH  046%=      5-min Rain = 0
KMD1 150237Z 16010KT 10/M02 A3027 RMK A01 T00951016  RH  046%=      5-min Rain = 0
KMD1 150238Z 16009KT 10/M01 A3027 RMK A01 T00951014  RH  047%=      5-min Rain = 0
KMD1 150239Z 16010KT 09/M01 A3027 RMK A01 T00941014  RH  047%=      5-min Rain = 0
KMD1 150240Z 15008KT 09/M01 A3027 RMK A01 T00941014  RH  047%=      5-min Rain = 0
KMD1 150241Z 15010KT 09/M01 A3027 RMK A01 T00941014  RH  047%=      5-min Rain = 0
KMD1 150242Z 16009KT 09/M01 A3027 RMK A01 T00941013  RH  047%=      5-min Rain = 0
KMD1 150243Z 16011KT 09/M01 A3027 RMK A01 T00931014  RH  047%=      5-min Rain = 0
KMD1 150244Z 16011KT 09/M01 A3027 RMK A01 T00941014  RH  047%=      5-min Rain = 0
KMD1 150245Z 16010KT 09/M01 A3027 RMK A01 T00941014  RH  047%=      5-min Rain = 0
KMD1 150246Z 16011KT 09/M01 A3027 RMK A01 T00941013  RH  047%=      5-min Rain = 0
KMD1 150247Z 16012KT 09/M02 A3027 RMK A01 T00941015  RH  047%=      5-min Rain = 0
KMD1 150248Z 16010KT 10/M02 A3027 RMK A01 T00951015  RH  046%=      5-min Rain = 0
KMD1 150249Z 16010KT 10/M01 A3027 RMK A01 T00951013  RH  047%=      5-min Rain = 0
KMD1 150250Z 17010G15KT 09/M01 A3027 RMK A01 T00941013  RH  047%=      5-min Rain = 0
KMD1 150251Z 16010KT 09/M01 A3027 RMK A01 T00931013  RH  047%=      5-min Rain = 0
KMD1 150252Z 16011KT 09/M01 A3028 RMK A01 T00931012  RH  048%=      5-min Rain = 0
KMD1 150253Z 16011KT 09/M01 A3028 RMK A01 T00931014  RH  047%=      5-min Rain = 0
KMD1 150254Z 17010KT 09/M01 A3028 RMK A01 T00931014  RH  047%=      5-min Rain = 0
KMD1 150255Z 16012KT 09/M01 A3028 RMK A01 T00941014  RH  047%=      5-min Rain = 0
KMD1 150256Z 17012KT 09/M01 A3028 RMK A01 T00931014  RH  047%=      5-min Rain = 0
KMD1 150257Z 16011G16KT 09/M01 A3028 RMK A01 T00941013  RH  047%=      5-min Rain = 0
KMD1 150258Z 16011KT 09/M01 A3028 RMK A01 T00931013  RH  047%=      5-min Rain = 0
KMD1 150259Z 16012KT 09/M01 A3028 RMK A01 T00931013  RH  048%=      5-min Rain = 0
KMD1 150300Z 17011KT 09/M01 A3028 RMK A01 T00931013  RH  047%=      5-min Rain = 0
KMD1 150301Z 17009KT 09/M01 A3028 RMK A01 T00921013  RH  048%=      5-min Rain = 0
KMD1 150302Z 17008KT 09/M01 A3028 RMK A01 T00911012  RH  048%=      5-min Rain = 0
KMD1 150303Z 17008KT 09/M01 A3028 RMK A01 T00901013  RH  048%=      5-min Rain = 0
KMD1 150304Z 17008KT 09/M01 A3028 RMK A01 T00901012  RH  049%=      5-min Rain = 0
KMD1 150305Z 17010KT 09/M01 A3028 RMK A01 T00891011  RH  049%=      5-min Rain = 0
KMD1 150306Z 17009KT 09/M01 A3028 RMK A01 T00891012  RH  049%=      5-min Rain = 0
KMD1 150307Z 17009KT 09/M01 A3028 RMK A01 T00891012  RH  049%=      5-min Rain = 0
KMD1 150308Z 17009KT 09/M01 A3028 RMK A01 T00881011  RH  050%=      5-min Rain = 0
KMD1 150309Z 17008KT 09/M01 A3028 RMK A01 T00881010  RH  050%=      5-min Rain = 0
KMD1 150310Z 17008KT 09/M01 A3028 RMK A01 T00871011  RH  050%=      5-min Rain = 0
KMD1 150311Z 17007KT 09/M01 A3029 RMK A01 T00871012  RH  050%=      5-min Rain = 0
KMD1 150312Z 16009KT 09/M01 A3028 RMK A01 T00871010  RH  050%=      5-min Rain = 0
KMD1 150313Z 17009KT 09/M01 A3028 RMK A01 T00871010  RH  050%=      5-min Rain = 0
KMD1 150314Z 16008KT 09/M01 A3028 RMK A01 T00861011  RH  050%=      5-min Rain = 0
KMD1 150315Z 17008KT 09/M01 A3028 RMK A01 T00861010  RH  051%=      5-min Rain = 0
KMD1 150316Z 17008KT 09/M01 A3028 RMK A01 T00861011  RH  051%=      5-min Rain = 0
KMD1 150317Z 16008KT 09/M01 A3028 RMK A01 T00861011  RH  051%=      5-min Rain = 0
KMD1 150318Z 17007KT 09/M01 A3028 RMK A01 T00851010  RH  051%=      5-min Rain = 0
KMD1 150319Z 17007KT 08/M01 A3029 RMK A01 T00841010  RH  052%=      5-min Rain = 0
KMD1 150320Z 16007KT 08/M01 A3029 RMK A01 T00841010  RH  051%=      5-min Rain = 0
KMD1 150321Z 17009KT 08/M01 A3029 RMK A01 T00841010  RH  051%=      5-min Rain = 0
KMD1 150322Z 17008KT 09/M01 A3029 RMK A01 T00851010  RH  051%=      5-min Rain = 0
KMD1 150323Z 17008KT 09/M01 A3029 RMK A01 T00851010  RH  051%=      5-min Rain = 0
KMD1 150324Z 17006KT 09/M01 A3029 RMK A01 T00851009  RH  051%=      5-min Rain = 0
KMD1 150325Z 17006KT 08/M01 A3029 RMK A01 T00841009  RH  052%=      5-min Rain = 0
KMD1 150326Z 17006KT 08/M01 A3029 RMK A01 T00831008  RH  053%=      5-min Rain = 0
KMD1 150327Z 18007KT 08/M01 A3029 RMK A01 T00821009  RH  053%=      5-min Rain = 0
KMD1 150328Z 17008KT 08/M01 A3029 RMK A01 T00821009  RH  053%=      5-min Rain = 0
KMD1 150329Z 17008KT 08/M01 A3029 RMK A01 T00821009  RH  053%=      5-min Rain = 0
KMD1 150330Z 17007KT 08/M01 A3029 RMK A01 T00831009  RH  053%=      5-min Rain = 0
KMD1 150331Z 17006KT 08/M01 A3029 RMK A01 T00821008  RH  053%=      5-min Rain = 0
KMD1 150332Z 17009KT 08/M01 A3029 RMK A01 T00801007  RH  054%=      5-min Rain = 0
KMD1 150333Z 17009KT 08/M01 A3029 RMK A01 T00801008  RH  054%=      5-min Rain = 0
KMD1 150334Z 17009KT 08/M01 A3029 RMK A01 T00821007  RH  053%=      5-min Rain = 0
KMD1 150335Z 17008KT 08/M01 A3029 RMK A01 T00821007  RH  054%=      5-min Rain = 0
KMD1 150336Z 17009KT 08/M01 A3029 RMK A01 T00811007  RH  054%=      5-min Rain = 0
KMD1 150337Z 17008KT 08/M01 A3029 RMK A01 T00811008  RH  054%=      5-min Rain = 0
KMD1 150338Z 17008KT 08/M01 A3029 RMK A01 T00811006  RH  054%=      5-min Rain = 0
KMD1 150339Z 17008KT 08/M01 A3029 RMK A01 T00811006  RH  054%=      5-min Rain = 0
KMD1 150340Z 17008KT 08/M01 A3029 RMK A01 T00811006  RH  054%=      5-min Rain = 0
KMD1 150341Z 17009KT 08/M01 A3029 RMK A01 T00801007  RH  054%=      5-min Rain = 0
KMD1 150342Z 17007KT 08/M01 A3029 RMK A01 T00801007  RH  054%=      5-min Rain = 0
KMD1 150343Z 17007KT 08/M01 A3029 RMK A01 T00801006  RH  054%=      5-min Rain = 0
KMD1 150344Z 17009KT 08/M01 A3029 RMK A01 T00801006  RH  055%=      5-min Rain = 0
KMD1 150345Z 17008KT 08/M01 A3029 RMK A01 T00801006  RH  055%=      5-min Rain = 0
KMD1 150346Z 17009KT 08/M01 A3029 RMK A01 T00801005  RH  055%=      5-min Rain = 0
KMD1 150347Z 17008KT 08/M01 A3029 RMK A01 T00791005  RH  055%=      5-min Rain = 0
KMD1 150348Z 17008KT 08/M01 A3029 RMK A01 T00791006  RH  055%=      5-min Rain = 0
KMD1 150349Z 17009KT 08/M01 A3029 RMK A01 T00791006  RH  055%=      5-min Rain = 0
KMD1 150350Z 17010KT 08/M01 A3028 RMK A01 T00791006  RH  055%=      5-min Rain = 0
KMD1 150351Z 16009KT 08/M01 A3028 RMK A01 T00791006  RH  055%=      5-min Rain = 0
KMD1 150352Z 16010KT 08/M01 A3028 RMK A01 T00791005  RH  055%=      5-min Rain = 0
KMD1 150353Z 17009KT 08/M01 A3028 RMK A01 T00791005  RH  055%=      5-min Rain = 0
KMD1 150354Z 16009KT 08/M01 A3028 RMK A01 T00791005  RH  055%=      5-min Rain = 0
KMD1 150355Z 17008KT 08/M01 A3028 RMK A01 T00791005  RH  055%=      5-min Rain = 0
KMD1 150356Z 17009KT 08/M00 A3028 RMK A01 T00781004  RH  056%=      5-min Rain = 0
KMD1 150357Z 17008KT 08/M01 A3028 RMK A01 T00781005  RH  056%=      5-min Rain = 0
KMD1 150358Z 17009KT 08/M01 A3028 RMK A01 T00781005  RH  055%=      5-min Rain = 0
KMD1 150359Z 17008KT 08/M01 A3029 RMK A01 T00791005  RH  055%=      5-min Rain = 0
KMD1 150400Z 17008KT 08/M00 A3029 RMK A01 T00781004  RH  056%=      5-min Rain = 0
KMD1 150401Z 17007KT 08/M00 A3028 RMK A01 T00781004  RH  056%=      5-min Rain = 0
KMD1 150402Z 17008KT 08/M01 A3028 RMK A01 T00771005  RH  056%=      5-min Rain = 0
KMD1 150403Z 17007KT 08/M00 A3028 RMK A01 T00771004  RH  056%=      5-min Rain = 0
KMD1 150404Z 17008KT 08/M00 A3028 RMK A01 T00771004  RH  057%=      5-min Rain = 0
KMD1 150405Z 17008KT 08/M00 A3028 RMK A01 T00771004  RH  057%=      5-min Rain = 0
KMD1 150406Z 17008KT 08/M01 A3028 RMK A01 T00771005  RH  056%=      5-min Rain = 0
KMD1 150407Z 17007KT 08/M00 A3028 RMK A01 T00771004  RH  056%=      5-min Rain = 0
KMD1 150408Z 17008KT 08/M00 A3028 RMK A01 T00771004  RH  056%=      5-min Rain = 0
KMD1 150409Z 16007KT 08/M00 A3028 RMK A01 T00771004  RH  057%=      5-min Rain = 0
KMD1 150410Z 17008KT 08/M00 A3028 RMK A01 T00761003  RH  057%=      5-min Rain = 0
KMD1 150411Z 17010KT 08/M00 A3028 RMK A01 T00751003  RH  058%=      5-min Rain = 0
KMD1 150412Z 16008KT 08/M00 A3028 RMK A01 T00761004  RH  057%=      5-min Rain = 0
KMD1 150413Z 16008KT 08/M00 A3028 RMK A01 T00771003  RH  057%=      5-min Rain = 0
KMD1 150414Z 16008KT 08/M00 A3028 RMK A01 T00761004  RH  057%=      5-min Rain = 0
KMD1 150415Z 16008KT 08/M00 A3027 RMK A01 T00771003  RH  057%=      5-min Rain = 0
KMD1 150416Z 16009KT 08/M00 A3027 RMK A01 T00761004  RH  057%=      5-min Rain = 0
KMD1 150417Z 17007KT 08/M00 A3027 RMK A01 T00761004  RH  057%=      5-min Rain = 0
KMD1 150418Z 16007KT 08/M00 A3027 RMK A01 T00771004  RH  057%=      5-min Rain = 0
KMD1 150419Z 16008KT 08/M00 A3027 RMK A01 T00761003  RH  057%=      5-min Rain = 0
KMD1 150420Z 16007KT 08/M00 A3027 RMK A01 T00761003  RH  057%=      5-min Rain = 0
KMD1 150421Z 16009KT 08/M00 A3027 RMK A01 T00761003  RH  057%=      5-min Rain = 0
KMD1 150422Z 15007KT 08/M00 A3027 RMK A01 T00761004  RH  057%=      5-min Rain = 0
KMD1 150423Z 16007KT 08/M00 A3027 RMK A01 T00761003  RH  057%=      5-min Rain = 0
KMD1 150424Z 16006KT 08/M00 A3027 RMK A01 T00751003  RH  058%=      5-min Rain = 0
KMD1 150425Z 17006KT 08/M00 A3027 RMK A01 T00751003  RH  058%=      5-min Rain = 0
KMD1 150426Z 17005KT 07/M00 A3027 RMK A01 T00741002  RH  058%=      5-min Rain = 0
KMD1 150427Z 16007KT 07/M00 A3027 RMK A01 T00721003  RH  059%=      5-min Rain = 0
KMD1 150428Z 16008KT 07/M00 A3027 RMK A01 T00721003  RH  059%=      5-min Rain = 0
KMD1 150429Z 17009KT 07/M00 A3027 RMK A01 T00741003  RH  058%=      5-min Rain = 0
KMD1 150430Z 16007KT 08/M00 A3027 RMK A01 T00751003  RH  058%=      5-min Rain = 0
KMD1 150431Z 16007KT 07/M00 A3027 RMK A01 T00741002  RH  058%=      5-min Rain = 0
KMD1 150432Z 17008KT 07/M00 A3027 RMK A01 T00731002  RH  059%=      5-min Rain = 0
KMD1 150433Z 16008KT 07/M00 A3027 RMK A01 T00731003  RH  059%=      5-min Rain = 0
KMD1 150434Z 17007KT 07/M00 A3027 RMK A01 T00741003  RH  058%=      5-min Rain = 0
KMD1 150435Z 17008KT 07/M00 A3027 RMK A01 T00741002  RH  059%=      5-min Rain = 0
KMD1 150436Z 16008KT 07/M00 A3027 RMK A01 T00731002  RH  059%=      5-min Rain = 0
KMD1 150437Z 17007KT 07/M00 A3027 RMK A01 T00741003  RH  058%=      5-min Rain = 0
KMD1 150438Z 16008KT 07/M00 A3027 RMK A01 T00741002  RH  058%=      5-min Rain = 0
KMD1 150439Z 17009KT 07/M00 A3027 RMK A01 T00741002  RH  059%=      5-min Rain = 0
KMD1 150440Z 17007KT 07/M00 A3027 RMK A01 T00741002  RH  059%=      5-min Rain = 0
KMD1 150441Z 17006KT 07/M00 A3027 RMK A01 T00741002  RH  059%=      5-min Rain = 0
KMD1 150442Z 17007KT 07/M00 A3027 RMK A01 T00731002  RH  059%=      5-min Rain = 0
KMD1 150443Z 17007KT 07/M00 A3027 RMK A01 T00731002  RH  059%=      5-min Rain = 0
KMD1 150444Z 18007KT 07/M00 A3027 RMK A01 T00721002  RH  059%=      5-min Rain = 0
KMD1 150445Z 18007KT 07/M00 A3027 RMK A01 T00721002  RH  059%=      5-min Rain = 0
KMD1 150446Z 17008KT 07/M00 A3027 RMK A01 T00721001  RH  060%=      5-min Rain = 0
KMD1 150447Z 17008KT 07/M00 A3027 RMK A01 T00721002  RH  060%=      5-min Rain = 0
KMD1 150448Z 17006KT 07/M00 A3026 RMK A01 T00721003  RH  059%=      5-min Rain = 0
KMD1 150449Z 17007KT 07/M00 A3026 RMK A01 T00721002  RH  059%=      5-min Rain = 0
KMD1 150450Z 17006KT 07/M00 A3026 RMK A01 T00721002  RH  059%=      5-min Rain = 0
KMD1 150451Z 17006KT 07/M00 A3026 RMK A01 T00721002  RH  059%=      5-min Rain = 0
KMD1 150452Z 17007KT 07/M00 A3026 RMK A01 T00711001  RH  060%=      5-min Rain = 0
KMD1 150453Z 17005KT 07/M00 A3026 RMK A01 T00701002  RH  060%=      5-min Rain = 0
KMD1 150454Z 17006KT 07/M00 A3027 RMK A01 T00701002  RH  060%=      5-min Rain = 0
KMD1 150455Z 18006KT 07/M00 A3027 RMK A01 T00701003  RH  060%=      5-min Rain = 0
KMD1 150456Z 18006KT 07/M00 A3027 RMK A01 T00701002  RH  060%=      5-min Rain = 0
KMD1 150457Z 18006KT 07/M00 A3027 RMK A01 T00701002  RH  060%=      5-min Rain = 0
KMD1 150458Z 18007KT 07/M00 A3027 RMK A01 T00701002  RH  060%=      5-min Rain = 0
KMD1 150459Z 18005KT 07/M00 A3027 RMK A01 T00701002  RH  060%=      5-min Rain = 0
KMD1 150500Z 18005KT 07/M00 A3027 RMK A01 T00711001  RH  060%=      5-min Rain = 0
KMD1 150501Z 18006KT 07/M00 A3027 RMK A01 T00701001  RH  060%=      5-min Rain = 0
KMD1 150502Z 18007KT 07/M00 A3026 RMK A01 T00701002  RH  060%=      5-min Rain = 0
KMD1 150503Z 18008KT 07/M00 A3026 RMK A01 T00701002  RH  060%=      5-min Rain = 0
KMD1 150504Z 18006KT 07/M00 A3026 RMK A01 T00711002  RH  060%=      5-min Rain = 0
KMD1 150505Z 18006KT 07/M00 A3027 RMK A01 T00721002  RH  059%=      5-min Rain = 0
KMD1 150506Z 18006KT 07/M00 A3027 RMK A01 T00721002  RH  060%=      5-min Rain = 0
KMD1 150507Z 17007KT 07/M00 A3026 RMK A01 T00711001  RH  060%=      5-min Rain = 0
KMD1 150508Z 18006KT 07/M00 A3026 RMK A01 T00701001  RH  061%=      5-min Rain = 0
KMD1 150509Z 17008KT 07/M00 A3026 RMK A01 T00701001  RH  061%=      5-min Rain = 0
KMD1 150510Z 17007KT 07/M00 A3026 RMK A01 T00701002  RH  060%=      5-min Rain = 0
KMD1 150511Z 17007KT 07/M00 A3026 RMK A01 T00701002  RH  060%=      5-min Rain = 0
KMD1 150512Z 17007KT 07/M00 A3026 RMK A01 T00711001  RH  060%=      5-min Rain = 0
KMD1 150513Z 17008KT 07/M00 A3026 RMK A01 T00701002  RH  060%=      5-min Rain = 0
KMD1 150514Z 17007KT 07/M00 A3026 RMK A01 T00701002  RH  060%=      5-min Rain = 0
KMD1 150515Z 17008KT 07/M00 A3026 RMK A01 T00711001  RH  060%=      5-min Rain = 0
KMD1 150516Z 17007KT 07/M00 A3026 RMK A01 T00701001  RH  060%=      5-min Rain = 0
KMD1 150517Z 17008KT 07/M00 A3026 RMK A01 T00701001  RH  060%=      5-min Rain = 0
KMD1 150518Z 17008KT 07/M00 A3026 RMK A01 T00701002  RH  060%=      5-min Rain = 0
KMD1 150519Z 16009KT 07/M00 A3026 RMK A01 T00701002  RH  060%=      5-min Rain = 0
KMD1 150520Z 16007KT 07/M00 A3026 RMK A01 T00711002  RH  060%=      5-min Rain = 0
KMD1 150521Z 16007KT 07/M00 A3026 RMK A01 T00701001  RH  061%=      5-min Rain = 0
KMD1 150522Z 16008KT 07/M00 A3026 RMK A01 T00691001  RH  061%=      5-min Rain = 0
KMD1 150523Z 17007KT 07/M00 A3026 RMK A01 T00691001  RH  061%=      5-min Rain = 0
KMD1 150524Z 16007KT 07/M00 A3025 RMK A01 T00691001  RH  061%=      5-min Rain = 0
KMD1 150525Z 16006KT 07/M00 A3025 RMK A01 T00681002  RH  061%=      5-min Rain = 0
KMD1 150526Z 15008KT 07/M00 A3025 RMK A01 T00681001  RH  061%=      5-min Rain = 0
KMD1 150527Z 16007KT 07/M00 A3025 RMK A01 T00671002  RH  062%=      5-min Rain = 0
KMD1 150528Z 16008KT 07/M00 A3025 RMK A01 T00671002  RH  061%=      5-min Rain = 0
KMD1 150529Z 16006KT 07/M00 A3025 RMK A01 T00681002  RH  061%=      5-min Rain = 0
KMD1 150530Z 17007KT 07/M00 A3025 RMK A01 T00681001  RH  062%=      5-min Rain = 0
KMD1 150531Z 16007KT 07/M00 A3025 RMK A01 T00671002  RH  062%=      5-min Rain = 0
KMD1 150532Z 16007KT 07/M00 A3025 RMK A01 T00671002  RH  062%=      5-min Rain = 0
KMD1 150533Z 16008KT 07/M00 A3025 RMK A01 T00671002  RH  062%=      5-min Rain = 0
KMD1 150534Z 17006KT 07/M00 A3025 RMK A01 T00671002  RH  061%=      5-min Rain = 0
KMD1 150535Z 17007KT 07/M00 A3025 RMK A01 T00671002  RH  061%=      5-min Rain = 0
KMD1 150536Z 17006KT 07/M00 A3025 RMK A01 T00671002  RH  061%=      5-min Rain = 0
KMD1 150537Z 16006KT 07/M00 A3025 RMK A01 T00671002  RH  061%=      5-min Rain = 0
KMD1 150538Z 17006KT 07/M00 A3025 RMK A01 T00671002  RH  061%=      5-min Rain = 0
KMD1 150539Z 16006KT 07/M00 A3025 RMK A01 T00671002  RH  061%=      5-min Rain = 0
KMD1 150540Z 16007KT 07/M00 A3025 RMK A01 T00661002  RH  062%=      5-min Rain = 0
KMD1 150541Z 15007KT 07/M00 A3025 RMK A01 T00661002  RH  062%=      5-min Rain = 0
KMD1 150542Z 15006KT 07/M00 A3025 RMK A01 T00661001  RH  062%=      5-min Rain = 0
KMD1 150543Z 16006KT 07/M00 A3025 RMK A01 T00661001  RH  062%=      5-min Rain = 0
KMD1 150544Z 15006KT 07/M00 A3025 RMK A01 T00651001  RH  062%=      5-min Rain = 0
KMD1 150545Z 16006KT 07/M00 A3025 RMK A01 T00651002  RH  063%=      5-min Rain = 0
KMD1 150546Z 16006KT 07/M00 A3025 RMK A01 T00651002  RH  062%=      5-min Rain = 0
KMD1 150547Z 16007KT 07/M00 A3025 RMK A01 T00651002  RH  062%=      5-min Rain = 0
KMD1 150548Z 16006KT 07/M00 A3025 RMK A01 T00651003  RH  062%=      5-min Rain = 0
KMD1 150549Z 17006KT 07/M00 A3025 RMK A01 T00661002  RH  062%=      5-min Rain = 0
KMD1 150550Z 17005KT 07/M00 A3025 RMK A01 T00661002  RH  062%=      5-min Rain = 0
KMD1 150551Z 17005KT 07/M00 A3025 RMK A01 T00651001  RH  063%=      5-min Rain = 0
KMD1 150552Z 17005KT 06/M00 A3025 RMK A01 T00641002  RH  063%=      5-min Rain = 0
KMD1 150553Z 17006KT 06/M00 A3025 RMK A01 T00641002  RH  063%=      5-min Rain = 0
KMD1 150554Z 16005KT 06/M00 A3025 RMK A01 T00641002  RH  063%=      5-min Rain = 0
KMD1 150555Z 17005KT 06/M00 A3025 RMK A01 T00641002  RH  063%=      5-min Rain = 0
KMD1 150556Z 17005KT 06/M00 A3025 RMK A01 T00631002  RH  063%=      5-min Rain = 0
KMD1 150557Z 17005KT 06/M00 A3025 RMK A01 T00631002  RH  063%=      5-min Rain = 0
KMD1 150558Z 16006KT 06/M00 A3025 RMK A01 T00631002  RH  063%=      5-min Rain = 0
KMD1 150559Z 17005KT 06/M00 A3025 RMK A01 T00631002  RH  063%=      5-min Rain = 0

Page generated in 0.1044 seconds.